Time,TemperatureF,DewpointF,PressureIn,WindDirection,WindDirectionDegrees,WindSpeedMPH,WindSpeedGustMPH,Humidity,HourlyPrecipIn,Conditions,Clouds,dailyrainin,SoftwareType,DateUTC
2013-04-27 00:00:00,48.2,10.1,30.39,West,270,0.0,0.0,21,0.00,,---,0.00,VWS V14.00,2013-04-27 04:00:00,
2013-04-27 00:01:00,48.2,10.1,30.39,West,270,0.0,0.0,21,0.00,,---,0.00,VWS V14.00,2013-04-27 04:01:00,
2013-04-27 00:02:00,48.2,10.1,30.39,West,270,0.0,0.0,21,0.00,,---,0.00,VWS V14.00,2013-04-27 04:02:00,
2013-04-27 00:04:00,48.0,11.0,30.39,West,270,0.0,0.0,22,0.00,,---,0.00,VWS V14.00,2013-04-27 04:04:00,
2013-04-27 00:05:00,48.0,11.0,30.39,West,270,0.0,0.0,22,0.00,,---,0.00,VWS V14.00,2013-04-27 04:05:00,
2013-04-27 00:09:00,47.8,10.9,30.39,West,270,0.0,0.0,22,0.00,,---,0.00,VWS V14.00,2013-04-27 04:09:00,
2013-04-27 00:10:00,47.7,10.7,30.39,West,270,0.0,0.0,22,0.00,,---,0.00,VWS V14.00,2013-04-27 04:10:00,
2013-04-27 00:11:00,47.8,10.9,30.39,West,270,0.0,0.0,22,0.00,,---,0.00,VWS V14.00,2013-04-27 04:11:00,
2013-04-27 00:13:00,47.7,10.7,30.39,West,270,0.0,0.0,22,0.00,,---,0.00,VWS V14.00,2013-04-27 04:13:00,
2013-04-27 00:15:00,47.8,10.9,30.39,West,270,0.0,0.0,22,0.00,,---,0.00,VWS V14.00,2013-04-27 04:15:00,
2013-04-27 00:16:00,47.7,10.7,30.39,West,270,0.0,0.0,22,0.00,,---,0.00,VWS V14.00,2013-04-27 04:16:00,
2013-04-27 00:20:00,47.5,10.6,30.39,West,270,0.0,0.0,22,0.00,,---,0.00,VWS V14.00,2013-04-27 04:20:00,
2013-04-27 00:21:00,47.7,10.7,30.39,West,270,0.0,0.0,22,0.00,,---,0.00,VWS V14.00,2013-04-27 04:21:00,
2013-04-27 00:22:00,47.7,10.7,30.39,West,270,0.0,0.0,22,0.00,,---,0.00,VWS V14.00,2013-04-27 04:22:00,
2013-04-27 00:23:00,47.7,10.7,30.39,West,270,0.0,0.0,22,0.00,,---,0.00,VWS V14.00,2013-04-27 04:23:00,
2013-04-27 00:24:00,47.7,10.7,30.39,West,270,0.0,0.0,22,0.00,,---,0.00,VWS V14.00,2013-04-27 04:24:00,
2013-04-27 00:29:00,47.3,10.4,30.39,WNW,292,3.6,3.8,22,0.00,,---,0.00,VWS V14.00,2013-04-27 04:29:00,
2013-04-27 00:32:00,47.7,10.7,30.39,West,270,3.6,5.8,22,0.00,,---,0.00,VWS V14.00,2013-04-27 04:32:00,
2013-04-27 00:34:00,48.2,13.1,30.39,WNW,292,5.8,7.4,24,0.00,,---,0.00,VWS V14.00,2013-04-27 04:34:00,
2013-04-27 00:35:00,48.2,13.1,30.39,West,270,4.9,5.8,24,0.00,,---,0.00,VWS V14.00,2013-04-27 04:35:00,
2013-04-27 00:39:00,48.2,13.1,30.39,WNW,292,3.4,3.4,24,0.00,,---,0.00,VWS V14.00,2013-04-27 04:39:00,
2013-04-27 00:40:00,48.0,13.0,30.39,NW,315,1.6,3.4,24,0.00,,---,0.00,VWS V14.00,2013-04-27 04:40:00,
2013-04-27 00:42:00,48.0,13.0,30.39,NW,315,1.6,2.2,24,0.00,,---,0.00,VWS V14.00,2013-04-27 04:42:00,
2013-04-27 00:43:00,48.2,13.1,30.39,WNW,292,2.0,4.0,24,0.00,,---,0.00,VWS V14.00,2013-04-27 04:43:00,
2013-04-27 00:47:00,48.6,15.2,30.39,WNW,292,4.3,4.3,26,0.00,,---,0.00,VWS V14.00,2013-04-27 04:47:00,
2013-04-27 00:48:00,48.6,15.2,30.39,WNW,292,2.9,4.3,26,0.00,,---,0.00,VWS V14.00,2013-04-27 04:48:00,
2013-04-27 00:49:00,48.4,15.1,30.39,NW,315,3.6,3.6,26,0.00,,---,0.00,VWS V14.00,2013-04-27 04:49:00,
2013-04-27 00:50:00,48.4,15.1,30.39,WNW,292,5.4,5.4,26,0.00,,---,0.00,VWS V14.00,2013-04-27 04:50:00,
2013-04-27 00:53:00,48.4,15.1,30.39,WNW,292,0.0,2.0,26,0.00,,---,0.00,VWS V14.00,2013-04-27 04:53:00,
2013-04-27 00:54:00,48.4,15.1,30.39,WNW,292,0.0,0.0,26,0.00,,---,0.00,VWS V14.00,2013-04-27 04:54:00,
2013-04-27 00:58:00,48.4,15.1,30.39,NW,315,2.7,3.8,26,0.00,,---,0.00,VWS V14.00,2013-04-27 04:58:00,
2013-04-27 00:59:00,48.4,15.1,30.39,WNW,292,1.6,4.3,26,0.00,,---,0.00,VWS V14.00,2013-04-27 04:59:00,
2013-04-27 01:00:00,48.4,15.1,30.39,WNW,292,3.6,4.9,26,0.00,,---,0.00,VWS V14.00,2013-04-27 05:00:00,
2013-04-27 01:04:00,48.4,16.0,30.39,NW,315,3.8,5.8,27,0.00,,---,0.00,VWS V14.00,2013-04-27 05:04:00,
2013-04-27 01:05:00,48.4,16.0,30.39,WNW,292,3.1,3.8,27,0.00,,---,0.00,VWS V14.00,2013-04-27 05:05:00,
2013-04-27 01:07:00,48.6,16.1,30.39,West,270,1.6,3.1,27,0.00,,---,0.00,VWS V14.00,2013-04-27 05:07:00,
2013-04-27 01:09:00,48.4,16.0,30.39,WNW,292,2.5,3.1,27,0.00,,---,0.00,VWS V14.00,2013-04-27 05:09:00,
2013-04-27 01:11:00,48.4,16.0,30.39,WNW,292,2.5,4.3,27,0.00,,---,0.00,VWS V14.00,2013-04-27 05:11:00,
2013-04-27 01:15:00,48.2,15.8,30.39,WNW,292,0.0,0.0,27,0.00,,---,0.00,VWS V14.00,2013-04-27 05:15:00,
2013-04-27 01:16:00,48.0,15.6,30.39,WNW,292,1.3,2.5,27,0.00,,---,0.00,VWS V14.00,2013-04-27 05:16:00,
2013-04-27 01:17:00,48.0,15.6,30.39,NW,315,2.0,3.1,27,0.00,,---,0.00,VWS V14.00,2013-04-27 05:17:00,
2013-04-27 01:18:00,48.0,15.6,30.39,WNW,292,0.0,2.0,27,0.00,,---,0.00,VWS V14.00,2013-04-27 05:18:00,
2013-04-27 01:22:00,48.0,15.6,30.39,NNW,338,3.6,3.6,27,0.00,,---,0.00,VWS V14.00,2013-04-27 05:22:00,
2013-04-27 01:23:00,48.0,15.6,30.39,North,0,3.4,3.6,27,0.00,,---,0.00,VWS V14.00,2013-04-27 05:23:00,
2013-04-27 01:24:00,48.0,15.6,30.39,NNW,338,3.1,4.7,27,0.00,,---,0.00,VWS V14.00,2013-04-27 05:24:00,
2013-04-27 01:28:00,47.7,15.3,30.39,NNW,338,4.0,4.3,27,0.00,,---,0.00,VWS V14.00,2013-04-27 05:28:00,
2013-04-27 01:29:00,47.7,15.3,30.39,NNW,338,2.0,4.0,27,0.00,,---,0.00,VWS V14.00,2013-04-27 05:29:00,
2013-04-27 01:31:00,47.5,15.2,30.39,WNW,292,1.1,1.6,27,0.00,,---,0.00,VWS V14.00,2013-04-27 05:31:00,
2013-04-27 01:32:00,47.5,15.2,30.39,WNW,292,2.7,2.7,27,0.00,,---,0.00,VWS V14.00,2013-04-27 05:32:00,
2013-04-27 01:35:00,47.3,15.0,30.39,NNW,338,2.0,3.4,27,0.00,,---,0.00,VWS V14.00,2013-04-27 05:35:00,
2013-04-27 01:36:00,47.3,15.0,30.39,WNW,292,2.2,3.1,27,0.00,,---,0.00,VWS V14.00,2013-04-27 05:36:00,
2013-04-27 01:40:00,47.3,15.0,30.39,WNW,292,2.9,3.1,27,0.00,,---,0.00,VWS V14.00,2013-04-27 05:40:00,
2013-04-27 01:41:00,47.5,15.2,30.39,WNW,292,4.3,4.3,27,0.00,,---,0.00,VWS V14.00,2013-04-27 05:41:00,
2013-04-27 01:42:00,47.5,15.2,30.39,NW,315,3.1,4.3,27,0.00,,---,0.00,VWS V14.00,2013-04-27 05:42:00,
2013-04-27 01:43:00,47.5,15.2,30.39,WNW,292,3.4,3.4,27,0.00,,---,0.00,VWS V14.00,2013-04-27 05:43:00,
2013-04-27 01:47:00,47.5,15.2,30.39,NW,315,2.0,2.7,27,0.00,,---,0.00,VWS V14.00,2013-04-27 05:47:00,
2013-04-27 01:48:00,47.5,15.2,30.39,NNW,338,0.0,2.0,27,0.00,,---,0.00,VWS V14.00,2013-04-27 05:48:00,
2013-04-27 01:49:00,47.3,15.0,30.39,NW,315,0.0,0.0,27,0.00,,---,0.00,VWS V14.00,2013-04-27 05:49:00,
2013-04-27 01:51:00,47.3,15.0,30.39,NW,315,2.9,2.9,27,0.00,,---,0.00,VWS V14.00,2013-04-27 05:51:00,
2013-04-27 01:54:00,47.3,15.0,30.39,NW,315,0.0,0.0,27,0.00,,---,0.00,VWS V14.00,2013-04-27 05:54:00,
2013-04-27 01:55:00,47.3,15.0,30.39,NW,315,0.0,0.0,27,0.00,,---,0.00,VWS V14.00,2013-04-27 05:55:00,
2013-04-27 01:56:00,47.3,15.0,30.39,NW,315,0.0,0.0,27,0.00,,---,0.00,VWS V14.00,2013-04-27 05:56:00,
2013-04-27 01:57:00,47.3,15.0,30.39,NW,315,0.0,0.0,27,0.00,,---,0.00,VWS V14.00,2013-04-27 05:57:00,
2013-04-27 02:02:00,47.1,14.9,30.39,NW,315,0.0,0.0,27,0.00,,---,0.00,VWS V14.00,2013-04-27 06:02:00,
2013-04-27 02:03:00,47.1,14.9,30.39,NW,315,0.0,0.0,27,0.00,,---,0.00,VWS V14.00,2013-04-27 06:03:00,
2013-04-27 02:04:00,47.1,14.9,30.39,NW,315,0.0,0.0,27,0.00,,---,0.00,VWS V14.00,2013-04-27 06:04:00,
2013-04-27 02:05:00,46.9,14.7,30.39,NW,315,0.0,0.0,27,0.00,,---,0.00,VWS V14.00,2013-04-27 06:05:00,
2013-04-27 02:09:00,47.3,15.0,30.39,NW,315,1.3,3.8,27,0.00,,---,0.00,VWS V14.00,2013-04-27 06:09:00,
2013-04-27 02:10:00,47.3,15.0,30.39,WNW,292,3.1,3.4,27,0.00,,---,0.00,VWS V14.00,2013-04-27 06:10:00,
2013-04-27 02:11:00,47.3,15.0,30.39,NW,315,0.0,3.1,27,0.00,,---,0.00,VWS V14.00,2013-04-27 06:11:00,
2013-04-27 02:13:00,47.3,15.0,30.39,NNW,338,0.0,2.2,27,0.00,,---,0.00,VWS V14.00,2013-04-27 06:13:00,
2013-04-27 02:15:00,47.3,15.0,30.39,NNE,22,0.0,1.6,27,0.00,,---,0.00,VWS V14.00,2013-04-27 06:15:00,
2013-04-27 02:16:00,47.3,15.0,30.39,North,0,2.7,2.7,27,0.00,,---,0.00,VWS V14.00,2013-04-27 06:16:00,
2013-04-27 02:17:00,47.3,15.0,30.39,NNE,22,4.0,4.0,27,0.00,,---,0.00,VWS V14.00,2013-04-27 06:17:00,
2013-04-27 02:18:00,47.5,15.2,30.39,North,0,1.3,4.0,27,0.00,,---,0.00,VWS V14.00,2013-04-27 06:18:00,
2013-04-27 02:20:00,47.7,15.3,30.39,North,0,3.6,4.0,27,0.00,,---,0.00,VWS V14.00,2013-04-27 06:20:00,
2013-04-27 02:23:00,47.8,15.5,30.39,North,0,2.9,2.9,27,0.00,,---,0.00,VWS V14.00,2013-04-27 06:23:00,
2013-04-27 02:24:00,47.8,15.5,30.39,North,0,0.9,2.9,27,0.00,,---,0.00,VWS V14.00,2013-04-27 06:24:00,
2013-04-27 02:25:00,48.0,15.6,30.39,North,0,3.6,4.0,27,0.00,,---,0.00,VWS V14.00,2013-04-27 06:25:00,
2013-04-27 02:29:00,48.2,14.9,30.39,NNE,22,2.9,4.3,26,0.00,,---,0.00,VWS V14.00,2013-04-27 06:29:00,
2013-04-27 02:31:00,48.2,14.9,30.39,NNE,22,3.4,3.8,26,0.00,,---,0.00,VWS V14.00,2013-04-27 06:31:00,
2013-04-27 02:32:00,48.2,14.9,30.39,NNW,338,2.7,3.8,26,0.00,,---,0.00,VWS V14.00,2013-04-27 06:32:00,
2013-04-27 02:34:00,48.2,14.9,30.39,NNW,338,3.1,3.4,26,0.00,,---,0.00,VWS V14.00,2013-04-27 06:34:00,
2013-04-27 02:36:00,48.2,14.9,30.39,North,0,0.0,2.7,26,0.00,,---,0.00,VWS V14.00,2013-04-27 06:36:00,
2013-04-27 02:37:00,48.2,14.9,30.39,NW,315,2.0,3.8,26,0.00,,---,0.00,VWS V14.00,2013-04-27 06:37:00,
2013-04-27 02:39:00,48.2,13.1,30.39,NNE,22,3.4,5.8,24,0.00,,---,0.00,VWS V14.00,2013-04-27 06:39:00,
2013-04-27 02:42:00,48.2,13.1,30.39,NNW,338,3.1,3.1,24,0.00,,---,0.00,VWS V14.00,2013-04-27 06:42:00,
2013-04-27 02:43:00,48.2,13.1,30.39,NW,315,0.0,3.1,24,0.00,,---,0.00,VWS V14.00,2013-04-27 06:43:00,
2013-04-27 02:45:00,48.0,13.0,30.39,NNW,338,0.0,0.0,24,0.00,,---,0.00,VWS V14.00,2013-04-27 06:45:00,
2013-04-27 02:46:00,48.0,13.0,30.39,NNW,338,2.7,4.3,24,0.00,,---,0.00,VWS V14.00,2013-04-27 06:46:00,
2013-04-27 02:47:00,48.0,13.0,30.39,NW,315,2.9,3.1,24,0.00,,---,0.00,VWS V14.00,2013-04-27 06:47:00,
2013-04-27 02:51:00,48.0,13.0,30.36,North,0,1.3,4.0,24,0.00,,---,0.00,VWS V14.00,2013-04-27 06:51:00,
2013-04-27 02:52:00,47.8,12.8,30.36,North,0,2.9,4.3,24,0.00,,---,0.00,VWS V14.00,2013-04-27 06:52:00,
2013-04-27 02:54:00,47.8,12.8,30.36,North,0,2.7,3.4,24,0.00,,---,0.00,VWS V14.00,2013-04-27 06:54:00,
2013-04-27 02:56:00,47.8,12.8,30.36,North,0,3.4,4.9,24,0.00,,---,0.00,VWS V14.00,2013-04-27 06:56:00,
2013-04-27 02:57:00,47.8,12.8,30.36,North,0,4.3,4.3,24,0.00,,---,0.00,VWS V14.00,2013-04-27 06:57:00,
2013-04-27 02:58:00,47.8,12.8,30.36,North,0,2.5,4.3,24,0.00,,---,0.00,VWS V14.00,2013-04-27 06:58:00,
2013-04-27 03:03:00,47.7,12.7,30.36,NNE,22,2.5,4.7,24,0.00,,---,0.00,VWS V14.00,2013-04-27 07:03:00,
2013-04-27 03:04:00,47.7,12.7,30.39,North,0,2.7,3.8,24,0.00,,---,0.00,VWS V14.00,2013-04-27 07:04:00,
2013-04-27 03:05:00,47.7,12.7,30.39,NNE,22,2.7,3.4,24,0.00,,---,0.00,VWS V14.00,2013-04-27 07:05:00,
2013-04-27 03:08:00,47.7,12.7,30.39,North,0,2.7,3.1,24,0.00,,---,0.00,VWS V14.00,2013-04-27 07:08:00,
2013-04-27 03:09:00,47.7,12.7,30.39,North,0,0.0,2.7,24,0.00,,---,0.00,VWS V14.00,2013-04-27 07:09:00,
2013-04-27 03:11:00,47.7,12.7,30.39,NNE,22,2.9,3.1,24,0.00,,---,0.00,VWS V14.00,2013-04-27 07:11:00,
2013-04-27 03:12:00,47.7,12.7,30.39,NNE,22,3.1,3.1,24,0.00,,---,0.00,VWS V14.00,2013-04-27 07:12:00,
2013-04-27 03:15:00,47.5,12.5,30.39,NNE,22,2.5,3.6,24,0.00,,---,0.00,VWS V14.00,2013-04-27 07:15:00,
2013-04-27 03:16:00,47.7,12.7,30.39,North,0,1.6,3.4,24,0.00,,---,0.00,VWS V14.00,2013-04-27 07:16:00,
2013-04-27 03:17:00,47.7,12.7,30.39,NNE,22,2.7,3.6,24,0.00,,---,0.00,VWS V14.00,2013-04-27 07:17:00,
2013-04-27 03:19:00,47.7,12.7,30.39,NNE,22,2.5,2.7,24,0.00,,---,0.00,VWS V14.00,2013-04-27 07:19:00,
2013-04-27 03:22:00,47.7,12.7,30.39,NNE,22,2.0,4.3,24,0.00,,---,0.00,VWS V14.00,2013-04-27 07:22:00,
2013-04-27 03:23:00,47.8,12.8,30.39,NE,45,3.1,3.4,24,0.00,,---,0.00,VWS V14.00,2013-04-27 07:23:00,
2013-04-27 03:24:00,47.8,12.8,30.39,NNE,22,2.7,4.0,24,0.00,,---,0.00,VWS V14.00,2013-04-27 07:24:00,
2013-04-27 03:25:00,48.0,13.0,30.39,NNE,22,2.5,2.7,24,0.00,,---,0.00,VWS V14.00,2013-04-27 07:25:00,
2013-04-27 03:26:00,48.0,13.0,30.39,NNE,22,3.1,3.1,24,0.00,,---,0.00,VWS V14.00,2013-04-27 07:26:00,
2013-04-27 03:27:00,48.2,13.1,30.39,NNE,22,3.6,3.6,24,0.00,,---,0.00,VWS V14.00,2013-04-27 07:27:00,
2013-04-27 03:31:00,48.6,13.4,30.39,NNE,22,4.3,4.3,24,0.00,,---,0.00,VWS V14.00,2013-04-27 07:31:00,
2013-04-27 03:32:00,48.7,13.6,30.39,NNE,22,3.8,5.6,24,0.00,,---,0.00,VWS V14.00,2013-04-27 07:32:00,
2013-04-27 03:33:00,48.9,13.7,30.39,NE,45,4.0,5.4,24,0.00,,---,0.00,VWS V14.00,2013-04-27 07:33:00,
2013-04-27 03:34:00,48.9,13.7,30.36,NNE,22,3.1,7.4,24,0.00,,---,0.00,VWS V14.00,2013-04-27 07:34:00,
2013-04-27 03:36:00,49.3,11.0,30.36,NNE,22,7.8,8.5,21,0.00,,---,0.00,VWS V14.00,2013-04-27 07:36:00,
2013-04-27 03:38:00,49.6,11.3,30.36,NNE,22,9.8,9.8,21,0.00,,---,0.00,VWS V14.00,2013-04-27 07:38:00,
2013-04-27 03:40:00,50.0,11.6,30.36,NNE,22,8.5,10.1,21,0.00,,---,0.00,VWS V14.00,2013-04-27 07:40:00,
2013-04-27 03:41:00,50.2,11.8,30.36,NNE,22,7.2,9.8,21,0.00,,---,0.00,VWS V14.00,2013-04-27 07:41:00,
2013-04-27 03:44:00,50.5,12.1,30.36,NNE,22,7.6,8.7,21,0.00,,---,0.00,VWS V14.00,2013-04-27 07:44:00,
2013-04-27 03:47:00,50.9,12.4,30.36,NE,45,7.8,8.5,21,0.00,,---,0.00,VWS V14.00,2013-04-27 07:47:00,
2013-04-27 03:49:00,50.9,12.4,30.36,NE,45,6.0,10.3,21,0.00,,---,0.00,VWS V14.00,2013-04-27 07:49:00,
2013-04-27 03:53:00,50.9,12.4,30.36,NE,45,5.6,6.3,21,0.00,,---,0.00,VWS V14.00,2013-04-27 07:53:00,
2013-04-27 03:55:00,51.1,12.5,30.36,NNE,22,5.4,6.5,21,0.00,,---,0.00,VWS V14.00,2013-04-27 07:55:00,
2013-04-27 03:56:00,50.9,12.4,30.36,NNE,22,6.0,6.5,21,0.00,,---,0.00,VWS V14.00,2013-04-27 07:56:00,
2013-04-27 03:58:00,51.1,12.5,30.36,ENE,68,5.8,13.2,21,0.00,,---,0.00,VWS V14.00,2013-04-27 07:58:00,
2013-04-27 04:00:00,51.1,12.5,30.36,NNE,22,6.0,7.6,21,0.00,,---,0.00,VWS V14.00,2013-04-27 08:00:00,
2013-04-27 04:01:00,51.1,12.5,30.36,NNE,22,5.4,6.0,21,0.00,,---,0.00,VWS V14.00,2013-04-27 08:01:00,
2013-04-27 04:03:00,51.1,12.5,30.36,NNE,22,4.9,7.8,21,0.00,,---,0.00,VWS V14.00,2013-04-27 08:03:00,
2013-04-27 04:04:00,51.1,12.5,30.39,NE,45,6.0,7.4,21,0.00,,---,0.00,VWS V14.00,2013-04-27 08:04:00,
2013-04-27 04:06:00,51.1,12.5,30.39,NNE,22,8.5,9.6,21,0.00,,---,0.00,VWS V14.00,2013-04-27 08:06:00,
2013-04-27 04:08:00,51.3,12.7,30.39,NE,45,7.8,7.8,21,0.00,,---,0.00,VWS V14.00,2013-04-27 08:08:00,
2013-04-27 04:10:00,51.3,12.7,30.39,NNE,22,5.8,10.7,21,0.00,,---,0.00,VWS V14.00,2013-04-27 08:10:00,
2013-04-27 04:11:00,51.3,12.7,30.39,NE,45,7.8,7.8,21,0.00,,---,0.00,VWS V14.00,2013-04-27 08:11:00,
2013-04-27 04:14:00,51.3,12.7,30.39,NE,45,6.3,8.7,21,0.00,,---,0.00,VWS V14.00,2013-04-27 08:14:00,
2013-04-27 04:16:00,51.3,12.7,30.39,NE,45,12.3,12.3,21,0.00,,---,0.00,VWS V14.00,2013-04-27 08:16:00,
2013-04-27 04:18:00,51.4,12.8,30.39,ENE,68,6.9,9.6,21,0.00,,---,0.00,VWS V14.00,2013-04-27 08:18:00,
2013-04-27 04:19:00,51.4,12.8,30.39,NNE,22,7.6,9.8,21,0.00,,---,0.00,VWS V14.00,2013-04-27 08:19:00,
2013-04-27 04:21:00,51.4,12.8,30.39,NE,45,6.0,7.8,21,0.00,,---,0.00,VWS V14.00,2013-04-27 08:21:00,
2013-04-27 04:22:00,51.4,12.8,30.39,NNE,22,8.7,9.4,21,0.00,,---,0.00,VWS V14.00,2013-04-27 08:22:00,
2013-04-27 04:24:00,51.4,12.8,30.39,NNE,22,5.4,8.1,21,0.00,,---,0.00,VWS V14.00,2013-04-27 08:24:00,
2013-04-27 04:27:00,51.4,12.8,30.39,North,0,5.6,10.1,21,0.00,,---,0.00,VWS V14.00,2013-04-27 08:27:00,
2013-04-27 04:29:00,51.3,12.7,30.39,North,0,4.9,6.3,21,0.00,,---,0.00,VWS V14.00,2013-04-27 08:29:00,
2013-04-27 04:30:00,51.3,12.7,30.39,North,0,3.8,4.9,21,0.00,,---,0.00,VWS V14.00,2013-04-27 08:30:00,
2013-04-27 04:32:00,51.1,12.5,30.39,NE,45,5.6,8.5,21,0.00,,---,0.00,VWS V14.00,2013-04-27 08:32:00,
2013-04-27 04:33:00,51.1,12.5,30.39,NNE,22,6.5,6.5,21,0.00,,---,0.00,VWS V14.00,2013-04-27 08:33:00,
2013-04-27 04:36:00,51.1,12.5,30.39,NNE,22,5.6,8.1,21,0.00,,---,0.00,VWS V14.00,2013-04-27 08:36:00,
2013-04-27 04:38:00,50.9,12.4,30.39,NNE,22,4.9,6.5,21,0.00,,---,0.00,VWS V14.00,2013-04-27 08:38:00,
2013-04-27 04:39:00,50.9,12.4,30.39,NNE,22,5.6,5.8,21,0.00,,---,0.00,VWS V14.00,2013-04-27 08:39:00,
2013-04-27 04:40:00,50.9,12.4,30.39,North,0,6.5,10.1,21,0.00,,---,0.00,VWS V14.00,2013-04-27 08:40:00,
2013-04-27 04:43:00,50.9,12.4,30.39,NNE,22,8.1,8.1,21,0.00,,---,0.00,VWS V14.00,2013-04-27 08:43:00,
2013-04-27 04:44:00,50.9,12.4,30.39,NE,45,10.1,10.1,21,0.00,,---,0.00,VWS V14.00,2013-04-27 08:44:00,
2013-04-27 04:45:00,50.9,12.4,30.39,NE,45,5.8,10.1,21,0.00,,---,0.00,VWS V14.00,2013-04-27 08:45:00,
2013-04-27 04:48:00,50.7,12.2,30.39,NE,45,7.8,10.5,21,0.00,,---,0.00,VWS V14.00,2013-04-27 08:48:00,
2013-04-27 04:49:00,50.9,12.4,30.36,NNE,22,6.3,10.3,21,0.00,,---,0.00,VWS V14.00,2013-04-27 08:49:00,
2013-04-27 04:52:00,50.7,12.2,30.36,NNE,22,5.8,6.5,21,0.00,,---,0.00,VWS V14.00,2013-04-27 08:52:00,
2013-04-27 04:53:00,50.7,12.2,30.36,NE,45,3.4,7.6,21,0.00,,---,0.00,VWS V14.00,2013-04-27 08:53:00,
2013-04-27 04:56:00,50.5,12.1,30.36,NNE,22,3.6,5.8,21,0.00,,---,0.00,VWS V14.00,2013-04-27 08:56:00,
2013-04-27 04:57:00,50.5,12.1,30.36,ENE,68,5.4,5.6,21,0.00,,---,0.00,VWS V14.00,2013-04-27 08:57:00,
2013-04-27 05:01:00,50.5,12.1,30.36,NNE,22,2.7,6.3,21,0.00,,---,0.00,VWS V14.00,2013-04-27 09:01:00,
2013-04-27 05:02:00,50.5,12.1,30.36,NNE,22,4.3,9.2,21,0.00,,---,0.00,VWS V14.00,2013-04-27 09:02:00,
2013-04-27 05:05:00,50.5,12.1,30.36,ENE,68,2.7,5.4,21,0.00,,---,0.00,VWS V14.00,2013-04-27 09:05:00,
2013-04-27 05:07:00,50.4,11.9,30.36,NE,45,4.3,6.3,21,0.00,,---,0.00,VWS V14.00,2013-04-27 09:07:00,
2013-04-27 05:08:00,50.4,11.9,30.36,NE,45,5.6,5.6,21,0.00,,---,0.00,VWS V14.00,2013-04-27 09:08:00,
2013-04-27 05:09:00,50.4,11.9,30.36,NNE,22,3.8,5.8,21,0.00,,---,0.00,VWS V14.00,2013-04-27 09:09:00,
2013-04-27 05:10:00,50.4,11.9,30.36,NE,45,5.8,5.8,21,0.00,,---,0.00,VWS V14.00,2013-04-27 09:10:00,
2013-04-27 05:11:00,50.4,11.9,30.36,ENE,68,5.8,6.3,21,0.00,,---,0.00,VWS V14.00,2013-04-27 09:11:00,
2013-04-27 05:14:00,50.4,11.9,30.36,NNE,22,4.9,7.8,21,0.00,,---,0.00,VWS V14.00,2013-04-27 09:14:00,
2013-04-27 05:15:00,50.2,11.8,30.36,NE,45,5.4,5.4,21,0.00,,---,0.00,VWS V14.00,2013-04-27 09:15:00,
2013-04-27 05:17:00,50.2,11.8,30.36,NNE,22,6.0,6.0,21,0.00,,---,0.00,VWS V14.00,2013-04-27 09:17:00,
2013-04-27 05:19:00,50.2,11.8,30.36,ENE,68,4.0,4.0,21,0.00,,---,0.00,VWS V14.00,2013-04-27 09:19:00,
2013-04-27 05:22:00,50.0,11.6,30.36,NE,45,4.7,7.2,21,0.00,,---,0.00,VWS V14.00,2013-04-27 09:22:00,
2013-04-27 05:23:00,50.0,11.6,30.36,NNE,22,4.9,5.6,21,0.00,,---,0.00,VWS V14.00,2013-04-27 09:23:00,
2013-04-27 05:24:00,50.0,11.6,30.36,NNE,22,2.7,6.3,21,0.00,,---,0.00,VWS V14.00,2013-04-27 09:24:00,
2013-04-27 05:27:00,49.8,11.5,30.36,NNE,22,2.7,3.4,21,0.00,,---,0.00,VWS V14.00,2013-04-27 09:27:00,
2013-04-27 05:29:00,49.8,11.5,30.36,ENE,68,4.3,4.3,21,0.00,,---,0.00,VWS V14.00,2013-04-27 09:29:00,
2013-04-27 05:31:00,49.8,11.5,30.36,NNE,22,2.5,5.4,21,0.00,,---,0.00,VWS V14.00,2013-04-27 09:31:00,
2013-04-27 05:33:00,49.6,11.3,30.36,NE,45,3.1,4.0,21,0.00,,---,0.00,VWS V14.00,2013-04-27 09:33:00,
2013-04-27 05:35:00,49.6,11.3,30.36,NNE,22,3.6,4.9,21,0.00,,---,0.00,VWS V14.00,2013-04-27 09:35:00,
2013-04-27 05:36:00,49.6,11.3,30.36,NE,45,4.0,4.0,21,0.00,,---,0.00,VWS V14.00,2013-04-27 09:36:00,
2013-04-27 05:38:00,49.6,11.3,30.36,NNE,22,4.3,4.3,21,0.00,,---,0.00,VWS V14.00,2013-04-27 09:38:00,
2013-04-27 05:41:00,49.6,11.3,30.36,NNE,22,3.1,5.4,21,0.00,,---,0.00,VWS V14.00,2013-04-27 09:41:00,
2013-04-27 05:43:00,49.6,11.3,30.36,NNE,22,3.4,6.0,21,0.00,,---,0.00,VWS V14.00,2013-04-27 09:43:00,
2013-04-27 05:44:00,49.6,11.3,30.36,NNE,22,4.3,4.3,21,0.00,,---,0.00,VWS V14.00,2013-04-27 09:44:00,
2013-04-27 05:47:00,49.5,11.2,30.36,NNE,22,2.0,4.7,21,0.00,,---,0.00,VWS V14.00,2013-04-27 09:47:00,
2013-04-27 05:48:00,49.5,11.2,30.36,NNE,22,3.1,3.1,21,0.00,,---,0.00,VWS V14.00,2013-04-27 09:48:00,
2013-04-27 05:51:00,49.3,11.0,30.39,NNE,22,3.4,3.6,21,0.00,,---,0.00,VWS V14.00,2013-04-27 09:51:00,
2013-04-27 05:52:00,49.3,11.0,30.39,NNE,22,2.5,4.3,21,0.00,,---,0.00,VWS V14.00,2013-04-27 09:52:00,
2013-04-27 05:54:00,49.3,11.0,30.39,NNE,22,2.7,6.0,21,0.00,,---,0.00,VWS V14.00,2013-04-27 09:54:00,
2013-04-27 05:57:00,49.3,11.0,30.39,NE,45,6.5,6.5,21,0.00,,---,0.00,VWS V14.00,2013-04-27 09:57:00,
2013-04-27 05:58:00,49.5,11.2,30.39,NE,45,6.5,6.5,21,0.00,,---,0.00,VWS V14.00,2013-04-27 09:58:00,
2013-04-27 05:59:00,49.5,11.2,30.39,NNE,22,3.1,6.5,21,0.00,,---,0.00,VWS V14.00,2013-04-27 09:59:00,
2013-04-27 06:01:00,49.5,11.2,30.39,ENE,68,2.9,4.7,21,0.00,,---,0.00,VWS V14.00,2013-04-27 10:01:00,
2013-04-27 06:03:00,49.3,11.0,30.39,NNE,22,2.9,2.9,21,0.00,,---,0.00,VWS V14.00,2013-04-27 10:03:00,
2013-04-27 06:06:00,49.3,11.0,30.39,NNE,22,2.2,3.8,21,0.00,,---,0.00,VWS V14.00,2013-04-27 10:06:00,
2013-04-27 06:07:00,49.3,11.0,30.39,NNE,22,3.6,3.6,21,0.00,,---,0.00,VWS V14.00,2013-04-27 10:07:00,
2013-04-27 06:11:00,49.3,11.0,30.39,NE,45,4.9,5.8,21,0.00,,---,0.00,VWS V14.00,2013-04-27 10:11:00,
2013-04-27 06:13:00,49.5,11.2,30.39,NNE,22,2.5,3.8,21,0.00,,---,0.00,VWS V14.00,2013-04-27 10:13:00,
2013-04-27 06:14:00,49.5,11.2,30.39,ENE,68,5.4,5.4,21,0.00,,---,0.00,VWS V14.00,2013-04-27 10:14:00,
2013-04-27 06:17:00,49.5,11.2,30.39,NNE,22,5.8,6.5,21,0.00,,---,0.00,VWS V14.00,2013-04-27 10:17:00,
2013-04-27 06:18:00,49.6,11.3,30.39,NE,45,6.3,6.3,21,0.00,,---,0.00,VWS V14.00,2013-04-27 10:18:00,
2013-04-27 06:19:00,49.6,11.3,30.41,NNE,22,1.6,6.3,21,0.00,,---,0.00,VWS V14.00,2013-04-27 10:19:00,
2013-04-27 06:22:00,49.6,11.3,30.41,NE,45,3.8,6.0,21,0.00,,---,0.00,VWS V14.00,2013-04-27 10:22:00,
2013-04-27 06:23:00,49.6,11.3,30.41,NE,45,4.3,4.9,21,0.00,,---,0.00,VWS V14.00,2013-04-27 10:23:00,
2013-04-27 06:24:00,49.8,11.5,30.41,NNE,22,3.8,5.8,21,0.00,,---,0.00,VWS V14.00,2013-04-27 10:24:00,
2013-04-27 06:26:00,49.8,11.5,30.41,NE,45,4.0,6.0,21,0.00,,---,0.00,VWS V14.00,2013-04-27 10:26:00,
2013-04-27 06:29:00,50.0,11.6,30.41,NE,45,3.1,5.4,21,0.00,,---,0.00,VWS V14.00,2013-04-27 10:29:00,
2013-04-27 06:31:00,50.2,11.8,30.41,NE,45,2.9,3.6,21,0.00,,---,0.00,VWS V14.00,2013-04-27 10:31:00,
2013-04-27 06:32:00,50.2,11.8,30.41,NNE,22,3.1,4.0,21,0.00,,---,0.00,VWS V14.00,2013-04-27 10:32:00,
2013-04-27 06:37:00,50.5,12.1,30.39,NE,45,3.8,5.6,21,0.00,,---,0.00,VWS V14.00,2013-04-27 10:37:00,
2013-04-27 06:38:00,50.5,12.1,30.39,NNE,22,2.5,3.8,21,0.00,,---,0.00,VWS V14.00,2013-04-27 10:38:00,
2013-04-27 06:41:00,51.1,12.5,30.39,NNE,22,3.4,4.7,21,0.00,,---,0.00,VWS V14.00,2013-04-27 10:41:00,
2013-04-27 06:42:00,51.1,12.5,30.39,NNE,22,2.2,3.4,21,0.00,,---,0.00,VWS V14.00,2013-04-27 10:42:00,
2013-04-27 06:44:00,51.4,12.8,30.39,NNE,22,2.7,3.4,21,0.00,,---,0.00,VWS V14.00,2013-04-27 10:44:00,
2013-04-27 06:45:00,51.4,12.8,30.39,ENE,68,4.3,4.3,21,0.00,,---,0.00,VWS V14.00,2013-04-27 10:45:00,
2013-04-27 06:47:00,51.6,13.0,30.39,NNE,22,3.6,3.6,21,0.00,,---,0.00,VWS V14.00,2013-04-27 10:47:00,
2013-04-27 06:49:00,52.0,13.3,30.39,NNE,22,2.5,3.6,21,0.00,,---,0.00,VWS V14.00,2013-04-27 10:49:00,
2013-04-27 06:52:00,52.2,13.4,30.39,NNE,22,2.5,2.7,21,0.00,,---,0.00,VWS V14.00,2013-04-27 10:52:00,
2013-04-27 06:53:00,52.3,13.6,30.39,NNE,22,2.2,2.5,21,0.00,,---,0.00,VWS V14.00,2013-04-27 10:53:00,
2013-04-27 06:54:00,52.5,13.7,30.39,NNE,22,0.0,2.2,21,0.00,,---,0.00,VWS V14.00,2013-04-27 10:54:00,
2013-04-27 06:58:00,52.9,14.0,30.39,NNE,22,1.6,2.5,21,0.00,,---,0.00,VWS V14.00,2013-04-27 10:58:00,
2013-04-27 07:00:00,52.9,14.0,30.39,North,0,3.1,3.6,21,0.00,,---,0.00,VWS V14.00,2013-04-27 11:00:00,
2013-04-27 07:02:00,53.1,14.2,30.39,NE,45,2.7,3.1,21,0.00,,---,0.00,VWS V14.00,2013-04-27 11:02:00,
2013-04-27 07:03:00,53.1,14.2,30.39,NNE,22,3.4,3.4,21,0.00,,---,0.00,VWS V14.00,2013-04-27 11:03:00,
2013-04-27 07:05:00,53.1,14.2,30.39,NNE,22,4.9,6.3,21,0.00,,---,0.00,VWS V14.00,2013-04-27 11:05:00,
2013-04-27 07:08:00,53.1,14.2,30.39,NNE,22,0.0,3.1,21,0.00,,---,0.00,VWS V14.00,2013-04-27 11:08:00,
2013-04-27 07:09:00,53.2,14.3,30.39,NNE,22,2.5,3.8,21,0.00,,---,0.00,VWS V14.00,2013-04-27 11:09:00,
2013-04-27 07:10:00,53.4,14.5,30.39,NNE,22,2.7,2.7,21,0.00,,---,0.00,VWS V14.00,2013-04-27 11:10:00,
2013-04-27 07:11:00,53.6,13.5,30.39,NNE,22,2.9,2.9,20,0.00,,---,0.00,VWS V14.00,2013-04-27 11:11:00,
2013-04-27 07:15:00,53.8,13.7,30.39,NE,45,3.1,4.0,20,0.00,,---,0.00,VWS V14.00,2013-04-27 11:15:00,
2013-04-27 07:16:00,54.0,13.8,30.39,NE,45,3.8,3.8,20,0.00,,---,0.00,VWS V14.00,2013-04-27 11:16:00,
2013-04-27 07:17:00,54.0,13.8,30.39,NNE,22,4.0,5.4,20,0.00,,---,0.00,VWS V14.00,2013-04-27 11:17:00,
2013-04-27 07:18:00,54.0,13.8,30.39,NNE,22,2.5,4.7,20,0.00,,---,0.00,VWS V14.00,2013-04-27 11:18:00,
2013-04-27 07:19:00,54.1,14.0,30.41,NNE,22,2.9,2.9,20,0.00,,---,0.00,VWS V14.00,2013-04-27 11:19:00,
2013-04-27 07:23:00,54.1,14.0,30.41,NE,45,3.6,6.3,20,0.00,,---,0.00,VWS V14.00,2013-04-27 11:23:00,
2013-04-27 07:24:00,54.1,14.0,30.41,NNE,22,3.6,4.9,20,0.00,,---,0.00,VWS V14.00,2013-04-27 11:24:00,
2013-04-27 07:26:00,54.1,14.0,30.41,NE,45,7.6,7.6,20,0.00,,---,0.00,VWS V14.00,2013-04-27 11:26:00,
2013-04-27 07:28:00,54.3,14.1,30.41,NE,45,4.0,4.3,20,0.00,,---,0.00,VWS V14.00,2013-04-27 11:28:00,
2013-04-27 07:29:00,54.3,14.1,30.41,NNE,22,3.4,5.6,20,0.00,,---,0.00,VWS V14.00,2013-04-27 11:29:00,
2013-04-27 07:32:00,54.3,14.1,30.41,NNE,22,3.8,6.5,20,0.00,,---,0.00,VWS V14.00,2013-04-27 11:32:00,
2013-04-27 07:34:00,54.5,14.3,30.39,NNE,22,4.9,4.9,20,0.00,,---,0.00,VWS V14.00,2013-04-27 11:34:00,
2013-04-27 07:36:00,54.5,14.3,30.39,NE,45,6.5,7.6,20,0.00,,---,0.00,VWS V14.00,2013-04-27 11:36:00,
2013-04-27 07:37:00,54.5,14.3,30.39,NE,45,4.3,7.8,20,0.00,,---,0.00,VWS V14.00,2013-04-27 11:37:00,
2013-04-27 07:38:00,54.7,14.4,30.39,NE,45,6.0,11.0,20,0.00,,---,0.00,VWS V14.00,2013-04-27 11:38:00,
2013-04-27 07:39:00,54.7,14.4,30.39,NNE,22,6.3,8.1,20,0.00,,---,0.00,VWS V14.00,2013-04-27 11:39:00,
2013-04-27 07:43:00,54.7,14.4,30.39,ENE,68,3.6,7.8,20,0.00,,---,0.00,VWS V14.00,2013-04-27 11:43:00,
2013-04-27 07:44:00,54.7,14.4,30.39,NNE,22,3.6,4.9,20,0.00,,---,0.00,VWS V14.00,2013-04-27 11:44:00,
2013-04-27 07:45:00,54.9,14.6,30.39,ENE,68,5.6,5.6,20,0.00,,---,0.00,VWS V14.00,2013-04-27 11:45:00,
2013-04-27 07:49:00,55.2,14.9,30.39,NE,45,8.7,9.2,20,0.00,,---,0.00,VWS V14.00,2013-04-27 11:49:00,
2013-04-27 07:50:00,55.2,14.9,30.39,NE,45,4.9,8.7,20,0.00,,---,0.00,VWS V14.00,2013-04-27 11:50:00,
2013-04-27 07:51:00,55.2,14.9,30.39,NE,45,4.9,6.0,20,0.00,,---,0.00,VWS V14.00,2013-04-27 11:51:00,
2013-04-27 07:54:00,55.4,15.0,30.39,NE,45,7.6,11.0,20,0.00,,---,0.00,VWS V14.00,2013-04-27 11:54:00,
2013-04-27 07:55:00,55.2,14.9,30.39,NNE,22,7.6,8.1,20,0.00,,---,0.00,VWS V14.00,2013-04-27 11:55:00,
2013-04-27 07:58:00,55.4,15.0,30.39,NE,45,6.3,8.1,20,0.00,,---,0.00,VWS V14.00,2013-04-27 11:58:00,
2013-04-27 07:59:00,55.4,15.0,30.39,NNE,22,5.8,6.5,20,0.00,,---,0.00,VWS V14.00,2013-04-27 11:59:00,
2013-04-27 08:04:00,55.9,15.5,30.41,NNE,22,10.1,10.5,20,0.00,,---,0.00,VWS V14.00,2013-04-27 12:04:00,
2013-04-27 08:05:00,55.9,15.5,30.41,ENE,68,7.6,10.1,20,0.00,,---,0.00,VWS V14.00,2013-04-27 12:05:00,
2013-04-27 08:08:00,55.6,15.2,30.41,NNE,22,5.4,8.7,20,0.00,,---,0.00,VWS V14.00,2013-04-27 12:08:00,
2013-04-27 08:09:00,55.6,11.5,30.41,ENE,68,11.0,11.0,17,0.00,,---,0.00,VWS V14.00,2013-04-27 12:09:00,
2013-04-27 08:10:00,55.6,11.5,30.41,NNE,22,8.5,11.0,17,0.00,,---,0.00,VWS V14.00,2013-04-27 12:10:00,
2013-04-27 08:14:00,55.4,15.0,30.41,NNE,22,4.5,8.5,20,0.00,,---,0.00,VWS V14.00,2013-04-27 12:14:00,
2013-04-27 08:15:00,55.6,15.2,30.41,NE,45,4.0,5.6,20,0.00,,---,0.00,VWS V14.00,2013-04-27 12:15:00,
2013-04-27 08:16:00,55.8,15.3,30.41,NNE,22,8.7,8.7,20,0.00,,---,0.00,VWS V14.00,2013-04-27 12:16:00,
2013-04-27 08:20:00,55.8,11.6,30.41,ENE,68,7.4,8.5,17,0.00,,---,0.00,VWS V14.00,2013-04-27 12:20:00,
2013-04-27 08:21:00,55.9,15.5,30.41,NE,45,5.6,8.1,20,0.00,,---,0.00,VWS V14.00,2013-04-27 12:21:00,
2013-04-27 08:22:00,56.1,15.6,30.41,ENE,68,6.5,6.5,20,0.00,,---,0.00,VWS V14.00,2013-04-27 12:22:00,
2013-04-27 08:23:00,56.1,15.6,30.41,ENE,68,4.3,6.5,20,0.00,,---,0.00,VWS V14.00,2013-04-27 12:23:00,
2013-04-27 08:27:00,56.3,15.8,30.41,NNE,22,7.4,8.5,20,0.00,,---,0.00,VWS V14.00,2013-04-27 12:27:00,
2013-04-27 08:29:00,56.7,12.4,30.41,NNE,22,5.8,7.6,17,0.00,,---,0.00,VWS V14.00,2013-04-27 12:29:00,
2013-04-27 08:31:00,57.2,12.8,30.41,NNE,22,7.4,7.4,17,0.00,,---,0.00,VWS V14.00,2013-04-27 12:31:00,
2013-04-27 08:32:00,57.0,12.7,30.41,NE,45,8.1,8.1,17,0.00,,---,0.00,VWS V14.00,2013-04-27 12:32:00,
2013-04-27 08:33:00,57.0,12.7,30.41,NNE,22,5.8,10.1,17,0.00,,---,0.00,VWS V14.00,2013-04-27 12:33:00,
2013-04-27 08:35:00,57.0,12.7,30.41,NE,45,8.7,8.7,17,0.00,,---,0.00,VWS V14.00,2013-04-27 12:35:00,
2013-04-27 08:37:00,57.0,12.7,30.41,NE,45,8.1,8.1,17,0.00,,---,0.00,VWS V14.00,2013-04-27 12:37:00,
2013-04-27 08:40:00,57.0,12.7,30.41,NE,45,9.2,9.2,17,0.00,,---,0.00,VWS V14.00,2013-04-27 12:40:00,
2013-04-27 08:41:00,56.8,12.5,30.41,NE,45,8.1,9.8,17,0.00,,---,0.00,VWS V14.00,2013-04-27 12:41:00,
2013-04-27 08:42:00,56.8,12.5,30.41,NE,45,5.6,8.1,17,0.00,,---,0.00,VWS V14.00,2013-04-27 12:42:00,
2013-04-27 08:45:00,56.8,12.5,30.41,NNE,22,7.8,9.4,17,0.00,,---,0.00,VWS V14.00,2013-04-27 12:45:00,
2013-04-27 08:47:00,57.2,12.8,30.41,NE,45,4.5,7.8,17,0.00,,---,0.00,VWS V14.00,2013-04-27 12:47:00,
2013-04-27 08:48:00,57.4,12.9,30.41,NE,45,7.6,7.6,17,0.00,,---,0.00,VWS V14.00,2013-04-27 12:48:00,
2013-04-27 08:49:00,57.6,13.1,30.41,NNE,22,4.0,7.6,17,0.00,,---,0.00,VWS V14.00,2013-04-27 12:49:00,
2013-04-27 08:50:00,57.9,13.4,30.41,ENE,68,5.6,5.6,17,0.00,,---,0.00,VWS V14.00,2013-04-27 12:50:00,
2013-04-27 08:52:00,57.6,13.1,30.41,ENE,68,8.7,8.7,17,0.00,,---,0.00,VWS V14.00,2013-04-27 12:52:00,
2013-04-27 08:53:00,57.6,13.1,30.41,NNE,22,5.4,8.7,17,0.00,,---,0.00,VWS V14.00,2013-04-27 12:53:00,
2013-04-27 08:55:00,57.6,13.1,30.41,NNE,22,7.8,7.8,17,0.00,,---,0.00,VWS V14.00,2013-04-27 12:55:00,
2013-04-27 08:57:00,57.4,12.9,30.41,NE,45,6.5,8.5,17,0.00,,---,0.00,VWS V14.00,2013-04-27 12:57:00,
2013-04-27 09:00:00,57.4,12.9,30.41,NNE,22,8.5,8.5,17,0.00,,---,0.00,VWS V14.00,2013-04-27 13:00:00,
2013-04-27 09:04:00,57.7,13.2,30.39,NE,45,5.6,6.3,17,0.00,,---,0.00,VWS V14.00,2013-04-27 13:04:00,
2013-04-27 09:05:00,57.7,13.2,30.39,NE,45,7.4,10.1,17,0.00,,---,0.00,VWS V14.00,2013-04-27 13:05:00,
2013-04-27 09:08:00,57.9,13.4,30.39,NNE,22,8.1,9.2,17,0.00,,---,0.00,VWS V14.00,2013-04-27 13:08:00,
2013-04-27 09:09:00,57.9,13.4,30.39,NE,45,9.6,9.6,17,0.00,,---,0.00,VWS V14.00,2013-04-27 13:09:00,
2013-04-27 09:11:00,57.7,13.2,30.39,NNE,22,7.6,8.5,17,0.00,,---,0.00,VWS V14.00,2013-04-27 13:11:00,
2013-04-27 09:14:00,58.1,13.5,30.39,NE,45,6.3,6.7,17,0.00,,---,0.00,VWS V14.00,2013-04-27 13:14:00,
2013-04-27 09:15:00,58.1,13.5,30.39,NE,45,7.4,8.1,17,0.00,,---,0.00,VWS V14.00,2013-04-27 13:15:00,
2013-04-27 09:17:00,58.1,13.5,30.39,NE,45,6.7,8.1,17,0.00,,---,0.00,VWS V14.00,2013-04-27 13:17:00,
2013-04-27 09:19:00,58.3,13.7,30.39,NNE,22,8.5,8.5,17,0.00,,---,0.00,VWS V14.00,2013-04-27 13:19:00,
2013-04-27 09:20:00,58.5,13.8,30.39,NNE,22,6.0,8.5,17,0.00,,---,0.00,VWS V14.00,2013-04-27 13:20:00,
2013-04-27 09:24:00,58.5,13.8,30.39,ENE,68,6.5,7.8,17,0.00,,---,0.00,VWS V14.00,2013-04-27 13:24:00,
2013-04-27 09:25:00,58.3,13.7,30.39,NNE,22,4.0,8.5,17,0.00,,---,0.00,VWS V14.00,2013-04-27 13:25:00,
2013-04-27 09:26:00,58.5,13.8,30.39,NE,45,6.3,7.4,17,0.00,,---,0.00,VWS V14.00,2013-04-27 13:26:00,
2013-04-27 09:28:00,58.1,13.5,30.39,NE,45,6.0,8.7,17,0.00,,---,0.00,VWS V14.00,2013-04-27 13:28:00,
2013-04-27 09:32:00,58.6,14.0,30.39,ENE,68,9.8,9.8,17,0.00,,---,0.00,VWS V14.00,2013-04-27 13:32:00,
2013-04-27 09:33:00,58.5,13.8,30.39,ENE,68,5.4,9.8,17,0.00,,---,0.00,VWS V14.00,2013-04-27 13:33:00,
2013-04-27 09:36:00,58.8,14.1,30.41,ENE,68,7.8,7.8,17,0.00,,---,0.00,VWS V14.00,2013-04-27 13:36:00,
2013-04-27 09:37:00,59.0,14.3,30.41,NNE,22,5.8,7.8,17,0.00,,---,0.00,VWS V14.00,2013-04-27 13:37:00,
2013-04-27 09:39:00,59.4,14.6,30.41,NE,45,6.0,6.0,17,0.00,,---,0.00,VWS V14.00,2013-04-27 13:39:00,
2013-04-27 09:41:00,59.4,14.6,30.41,NE,45,4.0,6.5,17,0.00,,---,0.00,VWS V14.00,2013-04-27 13:41:00,
2013-04-27 09:42:00,59.2,14.4,30.41,NE,45,6.9,6.9,17,0.00,,---,0.00,VWS V14.00,2013-04-27 13:42:00,
2013-04-27 09:48:00,60.1,15.1,30.41,ENE,68,4.9,6.0,17,0.00,,---,0.00,VWS V14.00,2013-04-27 13:48:00,
2013-04-27 09:50:00,59.9,15.0,30.41,ENE,68,4.7,7.4,17,0.00,,---,0.00,VWS V14.00,2013-04-27 13:50:00,
2013-04-27 09:52:00,59.9,15.0,30.41,ENE,68,7.2,7.2,17,0.00,,---,0.00,VWS V14.00,2013-04-27 13:52:00,
2013-04-27 09:55:00,59.9,15.0,30.41,ENE,68,4.9,6.9,17,0.00,,---,0.00,VWS V14.00,2013-04-27 13:55:00,
2013-04-27 09:57:00,60.1,15.1,30.41,ESE,112,4.9,6.3,17,0.00,,---,0.00,VWS V14.00,2013-04-27 13:57:00,
2013-04-27 09:59:00,60.1,15.1,30.41,ENE,68,6.0,7.6,17,0.00,,---,0.00,VWS V14.00,2013-04-27 13:59:00,
2013-04-27 10:00:00,59.7,14.9,30.41,ENE,68,7.4,7.8,17,0.00,,---,0.00,VWS V14.00,2013-04-27 14:00:00,
2013-04-27 10:02:00,59.5,14.7,30.41,NE,45,5.8,7.4,17,0.00,,---,0.00,VWS V14.00,2013-04-27 14:02:00,
2013-04-27 10:04:00,59.5,14.7,30.41,East,90,4.9,7.6,17,0.00,,---,0.00,VWS V14.00,2013-04-27 14:04:00,
2013-04-27 10:06:00,59.7,14.9,30.41,East,90,6.0,6.5,17,0.00,,---,0.00,VWS V14.00,2013-04-27 14:06:00,
2013-04-27 10:07:00,59.7,14.9,30.41,ENE,68,2.7,7.2,17,0.00,,---,0.00,VWS V14.00,2013-04-27 14:07:00,
2013-04-27 10:08:00,59.9,15.0,30.41,ESE,112,6.0,6.0,17,0.00,,---,0.00,VWS V14.00,2013-04-27 14:08:00,
2013-04-27 10:11:00,60.1,15.1,30.41,SE,135,6.3,6.3,17,0.00,,---,0.00,VWS V14.00,2013-04-27 14:11:00,
2013-04-27 10:12:00,60.1,15.1,30.41,SE,135,3.8,6.3,17,0.00,,---,0.00,VWS V14.00,2013-04-27 14:12:00,
2013-04-27 10:13:00,60.1,15.1,30.41,ENE,68,5.6,6.3,17,0.00,,---,0.00,VWS V14.00,2013-04-27 14:13:00,
2013-04-27 10:17:00,60.3,15.3,30.41,East,90,5.8,7.8,17,0.00,,---,0.00,VWS V14.00,2013-04-27 14:17:00,
2013-04-27 10:18:00,60.3,15.3,30.41,ENE,68,4.7,6.5,17,0.00,,---,0.00,VWS V14.00,2013-04-27 14:18:00,
2013-04-27 10:19:00,60.3,15.3,30.41,East,90,6.5,6.5,17,0.00,,---,0.00,VWS V14.00,2013-04-27 14:19:00,
2013-04-27 10:21:00,59.7,14.9,30.41,ENE,68,7.4,8.7,17,0.00,,---,0.00,VWS V14.00,2013-04-27 14:21:00,
2013-04-27 10:22:00,59.4,14.6,30.41,ENE,68,7.8,7.8,17,0.00,,---,0.00,VWS V14.00,2013-04-27 14:22:00,
2013-04-27 10:25:00,59.4,14.6,30.41,East,90,7.8,7.8,17,0.00,,---,0.00,VWS V14.00,2013-04-27 14:25:00,
2013-04-27 10:26:00,59.5,14.7,30.41,ENE,68,6.3,8.1,17,0.00,,---,0.00,VWS V14.00,2013-04-27 14:26:00,
2013-04-27 10:27:00,59.5,14.7,30.41,ESE,112,4.3,6.3,17,0.00,,---,0.00,VWS V14.00,2013-04-27 14:27:00,
2013-04-27 10:31:00,60.1,15.1,30.41,East,90,8.5,8.5,17,0.00,,---,0.00,VWS V14.00,2013-04-27 14:31:00,
2013-04-27 10:32:00,60.3,15.3,30.41,ENE,68,7.4,8.5,17,0.00,,---,0.00,VWS V14.00,2013-04-27 14:32:00,
2013-04-27 10:33:00,60.3,15.3,30.41,NNE,22,6.3,7.8,17,0.00,,---,0.00,VWS V14.00,2013-04-27 14:33:00,
2013-04-27 10:34:00,60.3,15.3,30.41,ESE,112,6.3,7.8,17,0.00,,---,0.00,VWS V14.00,2013-04-27 14:34:00,
2013-04-27 10:37:00,61.0,14.5,30.41,NE,45,4.0,5.6,16,0.00,,---,0.00,VWS V14.00,2013-04-27 14:37:00,
2013-04-27 10:40:00,61.0,14.5,30.41,SE,135,8.7,8.7,16,0.00,,---,0.00,VWS V14.00,2013-04-27 14:40:00,
2013-04-27 10:42:00,60.8,14.4,30.41,ENE,68,6.5,6.5,16,0.00,,---,0.00,VWS V14.00,2013-04-27 14:42:00,
2013-04-27 10:46:00,61.9,15.2,30.41,ESE,112,2.9,5.6,16,0.00,,---,0.00,VWS V14.00,2013-04-27 14:46:00,
2013-04-27 10:47:00,62.1,15.4,30.41,SE,135,3.8,4.9,16,0.00,,---,0.00,VWS V14.00,2013-04-27 14:47:00,
2013-04-27 10:49:00,61.9,15.2,30.39,ENE,68,7.8,7.8,16,0.00,,---,0.00,VWS V14.00,2013-04-27 14:49:00,
2013-04-27 10:51:00,61.3,14.8,30.39,SE,135,5.6,7.6,16,0.00,,---,0.00,VWS V14.00,2013-04-27 14:51:00,
2013-04-27 10:52:00,61.3,14.8,30.39,ESE,112,5.4,6.0,16,0.00,,---,0.00,VWS V14.00,2013-04-27 14:52:00,
2013-04-27 10:53:00,61.2,14.6,30.39,ESE,112,6.7,8.7,16,0.00,,---,0.00,VWS V14.00,2013-04-27 14:53:00,
2013-04-27 10:54:00,61.3,14.8,30.39,ENE,68,3.1,6.7,16,0.00,,---,0.00,VWS V14.00,2013-04-27 14:54:00,
2013-04-27 10:58:00,61.9,15.2,30.39,ENE,68,5.4,6.5,16,0.00,,---,0.00,VWS V14.00,2013-04-27 14:58:00,
2013-04-27 10:59:00,61.7,15.1,30.39,ESE,112,7.4,7.4,16,0.00,,---,0.00,VWS V14.00,2013-04-27 14:59:00,
2013-04-27 11:01:00,61.7,15.1,30.39,ENE,68,6.0,6.3,16,0.00,,---,0.00,VWS V14.00,2013-04-27 15:01:00,
2013-04-27 11:02:00,61.5,14.9,30.39,ESE,112,5.8,6.0,16,0.00,,---,0.00,VWS V14.00,2013-04-27 15:02:00,
2013-04-27 11:04:00,61.9,15.2,30.39,NE,45,6.0,7.8,16,0.00,,---,0.00,VWS V14.00,2013-04-27 15:04:00,
2013-04-27 11:07:00,61.5,14.9,30.39,NE,45,6.3,7.2,16,0.00,,---,0.00,VWS V14.00,2013-04-27 15:07:00,
2013-04-27 11:08:00,61.3,14.8,30.39,NE,45,5.8,8.5,16,0.00,,---,0.00,VWS V14.00,2013-04-27 15:08:00,
2013-04-27 11:09:00,61.2,14.6,30.39,ESE,112,4.7,7.8,16,0.00,,---,0.00,VWS V14.00,2013-04-27 15:09:00,
2013-04-27 11:13:00,61.3,14.8,30.39,ENE,68,3.6,7.2,16,0.00,,---,0.00,VWS V14.00,2013-04-27 15:13:00,
2013-04-27 11:14:00,61.5,14.9,30.39,East,90,4.9,4.9,16,0.00,,---,0.00,VWS V14.00,2013-04-27 15:14:00,
2013-04-27 11:15:00,61.7,15.1,30.39,East,90,5.6,6.0,16,0.00,,---,0.00,VWS V14.00,2013-04-27 15:15:00,
2013-04-27 11:19:00,61.9,15.2,30.39,NE,45,5.4,6.3,16,0.00,,---,0.00,VWS V14.00,2013-04-27 15:19:00,
2013-04-27 11:20:00,61.7,15.1,30.39,NE,45,6.3,7.6,16,0.00,,---,0.00,VWS V14.00,2013-04-27 15:20:00,
2013-04-27 11:21:00,62.1,15.4,30.39,NE,45,3.4,6.3,16,0.00,,---,0.00,VWS V14.00,2013-04-27 15:21:00,
2013-04-27 11:22:00,61.9,15.2,30.39,ESE,112,7.8,7.8,16,0.00,,---,0.00,VWS V14.00,2013-04-27 15:22:00,
2013-04-27 11:25:00,61.9,15.2,30.39,NE,45,4.7,8.7,16,0.00,,---,0.00,VWS V14.00,2013-04-27 15:25:00,
2013-04-27 11:26:00,62.2,15.5,30.39,ENE,68,4.3,5.8,16,0.00,,---,0.00,VWS V14.00,2013-04-27 15:26:00,
2013-04-27 11:28:00,62.4,15.7,30.39,NE,45,4.9,6.5,16,0.00,,---,0.00,VWS V14.00,2013-04-27 15:28:00,
2013-04-27 11:29:00,62.2,15.5,30.39,ENE,68,6.0,6.5,16,0.00,,---,0.00,VWS V14.00,2013-04-27 15:29:00,
2013-04-27 11:30:00,62.2,15.5,30.39,ENE,68,5.4,6.0,16,0.00,,---,0.00,VWS V14.00,2013-04-27 15:30:00,
2013-04-27 11:32:00,62.2,15.5,30.39,East,90,5.8,5.8,16,0.00,,---,0.00,VWS V14.00,2013-04-27 15:32:00,
2013-04-27 11:34:00,62.2,15.5,30.39,NE,45,5.6,6.3,16,0.00,,---,0.00,VWS V14.00,2013-04-27 15:34:00,
2013-04-27 11:36:00,62.4,15.7,30.39,ENE,68,5.4,6.5,16,0.00,,---,0.00,VWS V14.00,2013-04-27 15:36:00,
2013-04-27 11:38:00,62.4,15.7,30.39,NE,45,5.8,6.0,16,0.00,,---,0.00,VWS V14.00,2013-04-27 15:38:00,
2013-04-27 11:42:00,62.8,18.7,30.39,ENE,68,2.0,7.8,18,0.00,,---,0.00,VWS V14.00,2013-04-27 15:42:00,
2013-04-27 11:43:00,63.3,19.1,30.39,East,90,3.1,3.1,18,0.00,,---,0.00,VWS V14.00,2013-04-27 15:43:00,
2013-04-27 11:44:00,63.0,16.1,30.39,ESE,112,6.5,6.5,16,0.00,,---,0.00,VWS V14.00,2013-04-27 15:44:00,
2013-04-27 11:45:00,62.6,15.8,30.39,SE,135,8.5,8.5,16,0.00,,---,0.00,VWS V14.00,2013-04-27 15:45:00,
2013-04-27 11:48:00,61.7,15.1,30.39,ESE,112,8.1,8.1,16,0.00,,---,0.00,VWS V14.00,2013-04-27 15:48:00,
2013-04-27 11:49:00,61.5,14.9,30.39,ESE,112,7.6,8.1,16,0.00,,---,0.00,VWS V14.00,2013-04-27 15:49:00,
2013-04-27 11:53:00,61.7,15.1,30.39,ESE,112,8.7,8.7,16,0.00,,---,0.00,VWS V14.00,2013-04-27 15:53:00,
2013-04-27 11:54:00,61.5,14.9,30.39,ESE,112,7.6,8.7,16,0.00,,---,0.00,VWS V14.00,2013-04-27 15:54:00,
2013-04-27 11:55:00,61.5,14.9,30.39,ESE,112,7.6,7.6,16,0.00,,---,0.00,VWS V14.00,2013-04-27 15:55:00,
2013-04-27 11:56:00,61.3,14.8,30.39,ESE,112,4.3,8.7,16,0.00,,---,0.00,VWS V14.00,2013-04-27 15:56:00,
2013-04-27 11:58:00,61.9,15.2,30.39,East,90,3.6,7.4,16,0.00,,---,0.00,VWS V14.00,2013-04-27 15:58:00,
2013-04-27 12:00:00,61.7,15.1,30.39,ESE,112,8.1,8.1,16,0.00,,---,0.00,VWS V14.00,2013-04-27 16:00:00,
2013-04-27 12:02:00,62.1,15.4,30.39,NE,45,5.4,6.5,16,0.00,,---,0.00,VWS V14.00,2013-04-27 16:02:00,
2013-04-27 12:05:00,62.2,15.5,30.36,NE,45,4.9,8.1,16,0.00,,---,0.00,VWS V14.00,2013-04-27 16:05:00,
2013-04-27 12:06:00,62.4,15.7,30.36,ESE,112,4.9,4.9,16,0.00,,---,0.00,VWS V14.00,2013-04-27 16:06:00,
2013-04-27 12:07:00,62.1,15.4,30.36,NE,45,3.8,6.0,16,0.00,,---,0.00,VWS V14.00,2013-04-27 16:07:00,
2013-04-27 12:09:00,61.9,15.2,30.36,East,90,9.2,9.2,16,0.00,,---,0.00,VWS V14.00,2013-04-27 16:09:00,
2013-04-27 12:11:00,61.7,19.0,30.36,ENE,68,6.3,6.3,19,0.00,,---,0.00,VWS V14.00,2013-04-27 16:11:00,
2013-04-27 12:13:00,62.1,19.3,30.36,NE,45,6.5,6.5,19,0.00,,---,0.00,VWS V14.00,2013-04-27 16:13:00,
2013-04-27 12:14:00,62.2,19.5,30.36,NE,45,5.6,6.5,19,0.00,,---,0.00,VWS V14.00,2013-04-27 16:14:00,
2013-04-27 12:16:00,62.6,18.5,30.36,ENE,68,3.8,7.6,18,0.00,,---,0.00,VWS V14.00,2013-04-27 16:16:00,
2013-04-27 12:18:00,61.9,15.2,30.36,ENE,68,6.0,7.2,16,0.00,,---,0.00,VWS V14.00,2013-04-27 16:18:00,
2013-04-27 12:19:00,61.7,15.1,30.39,ENE,68,7.2,9.6,16,0.00,,---,0.00,VWS V14.00,2013-04-27 16:19:00,
2013-04-27 12:21:00,61.5,18.9,30.39,East,90,4.3,8.1,19,0.00,,---,0.00,VWS V14.00,2013-04-27 16:21:00,
2013-04-27 12:23:00,61.5,18.9,30.39,SE,135,5.6,7.4,19,0.00,,---,0.00,VWS V14.00,2013-04-27 16:23:00,
2013-04-27 12:25:00,60.8,18.3,30.39,ESE,112,8.1,8.1,19,0.00,,---,0.00,VWS V14.00,2013-04-27 16:25:00,
2013-04-27 12:26:00,60.4,18.0,30.39,SSE,158,6.0,10.1,19,0.00,,---,0.00,VWS V14.00,2013-04-27 16:26:00,
2013-04-27 12:27:00,60.4,15.4,30.39,ESE,112,6.3,9.2,17,0.00,,---,0.00,VWS V14.00,2013-04-27 16:27:00,
2013-04-27 12:30:00,60.3,17.9,30.39,ESE,112,5.4,7.8,19,0.00,,---,0.00,VWS V14.00,2013-04-27 16:30:00,
2013-04-27 12:32:00,60.6,18.2,30.39,ESE,112,6.5,6.5,19,0.00,,---,0.00,VWS V14.00,2013-04-27 16:32:00,
2013-04-27 12:35:00,61.7,19.0,30.39,SE,135,4.9,5.6,19,0.00,,---,0.00,VWS V14.00,2013-04-27 16:35:00,
2013-04-27 12:37:00,61.5,18.9,30.39,ESE,112,6.3,6.5,19,0.00,,---,0.00,VWS V14.00,2013-04-27 16:37:00,
2013-04-27 12:41:00,62.1,19.3,30.39,ESE,112,4.0,6.5,19,0.00,,---,0.00,VWS V14.00,2013-04-27 16:41:00,
2013-04-27 12:43:00,61.7,15.1,30.39,NNE,22,5.4,6.3,16,0.00,,---,0.00,VWS V14.00,2013-04-27 16:43:00,
2013-04-27 12:44:00,62.1,19.3,30.39,ESE,112,8.1,8.1,19,0.00,,---,0.00,VWS V14.00,2013-04-27 16:44:00,
2013-04-27 12:46:00,62.1,19.3,30.39,SE,135,3.4,7.2,19,0.00,,---,0.00,VWS V14.00,2013-04-27 16:46:00,
2013-04-27 12:47:00,62.2,19.5,30.39,SE,135,6.3,6.3,19,0.00,,---,0.00,VWS V14.00,2013-04-27 16:47:00,
2013-04-27 12:49:00,61.9,19.2,30.39,SSE,158,6.5,9.8,19,0.00,,---,0.00,VWS V14.00,2013-04-27 16:49:00,
2013-04-27 12:51:00,61.3,18.8,30.39,ESE,112,7.6,8.5,19,0.00,,---,0.00,VWS V14.00,2013-04-27 16:51:00,
2013-04-27 12:52:00,61.3,18.8,30.39,ESE,112,5.8,7.6,19,0.00,,---,0.00,VWS V14.00,2013-04-27 16:52:00,
2013-04-27 12:53:00,61.5,18.9,30.39,SE,135,5.6,5.8,19,0.00,,---,0.00,VWS V14.00,2013-04-27 16:53:00,
2013-04-27 12:57:00,61.7,19.0,30.39,East,90,5.8,6.5,19,0.00,,---,0.00,VWS V14.00,2013-04-27 16:57:00,
2013-04-27 12:58:00,61.7,19.0,30.39,ESE,112,8.1,9.2,19,0.00,,---,0.00,VWS V14.00,2013-04-27 16:58:00,
2013-04-27 12:59:00,61.3,18.8,30.39,SE,135,5.8,9.8,19,0.00,,---,0.00,VWS V14.00,2013-04-27 16:59:00,
2013-04-27 13:00:00,61.3,18.8,30.39,ESE,112,8.7,8.7,19,0.00,,---,0.00,VWS V14.00,2013-04-27 17:00:00,
2013-04-27 13:03:00,61.2,18.6,30.39,SE,135,8.1,8.1,19,0.00,,---,0.00,VWS V14.00,2013-04-27 17:03:00,
2013-04-27 13:04:00,61.0,14.5,30.39,SE,135,5.6,8.1,16,0.00,,---,0.00,VWS V14.00,2013-04-27 17:04:00,
2013-04-27 13:05:00,60.8,14.4,30.39,SE,135,7.2,9.6,16,0.00,,---,0.00,VWS V14.00,2013-04-27 17:05:00,
2013-04-27 13:06:00,60.6,18.2,30.39,SSE,158,6.5,8.7,19,0.00,,---,0.00,VWS V14.00,2013-04-27 17:06:00,
2013-04-27 13:10:00,61.0,14.5,30.39,ESE,112,7.8,8.1,16,0.00,,---,0.00,VWS V14.00,2013-04-27 17:10:00,
2013-04-27 13:11:00,60.8,18.3,30.39,SE,135,7.8,7.8,19,0.00,,---,0.00,VWS V14.00,2013-04-27 17:11:00,
2013-04-27 13:12:00,60.8,18.3,30.39,SSW,202,6.3,7.8,19,0.00,,---,0.00,VWS V14.00,2013-04-27 17:12:00,
2013-04-27 13:14:00,61.5,18.9,30.39,SSE,158,4.7,7.2,19,0.00,,---,0.00,VWS V14.00,2013-04-27 17:14:00,
2013-04-27 13:16:00,61.9,19.2,30.39,ESE,112,7.6,7.6,19,0.00,,---,0.00,VWS V14.00,2013-04-27 17:16:00,
2013-04-27 13:18:00,62.1,15.4,30.39,East,90,5.4,6.0,16,0.00,,---,0.00,VWS V14.00,2013-04-27 17:18:00,
2013-04-27 13:19:00,62.2,19.5,30.36,East,90,4.3,7.4,19,0.00,,---,0.00,VWS V14.00,2013-04-27 17:19:00,
2013-04-27 13:22:00,61.9,15.2,30.36,ESE,112,5.4,8.7,16,0.00,,---,0.00,VWS V14.00,2013-04-27 17:22:00,
2013-04-27 13:23:00,62.4,15.7,30.36,NNE,22,2.9,5.8,16,0.00,,---,0.00,VWS V14.00,2013-04-27 17:23:00,
2013-04-27 13:24:00,62.4,15.7,30.36,ESE,112,6.5,6.5,16,0.00,,---,0.00,VWS V14.00,2013-04-27 17:24:00,
2013-04-27 13:27:00,62.1,15.4,30.36,SE,135,6.3,7.4,16,0.00,,---,0.00,VWS V14.00,2013-04-27 17:27:00,
2013-04-27 13:28:00,62.4,15.7,30.36,East,90,4.3,7.6,16,0.00,,---,0.00,VWS V14.00,2013-04-27 17:28:00,
2013-04-27 13:29:00,62.8,15.9,30.36,ESE,112,5.6,6.0,16,0.00,,---,0.00,VWS V14.00,2013-04-27 17:29:00,
2013-04-27 13:30:00,62.6,15.8,30.36,ESE,112,5.8,8.1,16,0.00,,---,0.00,VWS V14.00,2013-04-27 17:30:00,
2013-04-27 13:34:00,63.3,16.4,30.36,East,90,8.1,8.1,16,0.00,,---,0.00,VWS V14.00,2013-04-27 17:34:00,
2013-04-27 13:35:00,63.1,16.2,30.36,SE,135,4.3,8.1,16,0.00,,---,0.00,VWS V14.00,2013-04-27 17:35:00,
2013-04-27 13:36:00,62.6,18.5,30.36,ESE,112,6.3,9.8,18,0.00,,---,0.00,VWS V14.00,2013-04-27 17:36:00,
2013-04-27 13:37:00,62.2,19.5,30.36,SSE,158,7.6,8.7,19,0.00,,---,0.00,VWS V14.00,2013-04-27 17:37:00,
2013-04-27 13:41:00,62.6,18.5,30.36,ESE,112,10.1,10.1,18,0.00,,---,0.00,VWS V14.00,2013-04-27 17:41:00,
2013-04-27 13:42:00,62.2,19.5,30.36,ESE,112,6.0,10.1,19,0.00,,---,0.00,VWS V14.00,2013-04-27 17:42:00,
2013-04-27 13:45:00,62.2,19.5,30.36,ESE,112,6.3,6.3,19,0.00,,---,0.00,VWS V14.00,2013-04-27 17:45:00,
2013-04-27 13:46:00,62.4,19.6,30.36,ESE,112,6.3,6.3,19,0.00,,---,0.00,VWS V14.00,2013-04-27 17:46:00,
2013-04-27 13:47:00,62.6,18.5,30.36,SE,135,4.9,6.3,18,0.00,,---,0.00,VWS V14.00,2013-04-27 17:47:00,
2013-04-27 13:50:00,62.8,15.9,30.36,East,90,5.4,6.5,16,0.00,,---,0.00,VWS V14.00,2013-04-27 17:50:00,
2013-04-27 13:52:00,62.6,15.8,30.36,ESE,112,7.6,8.7,16,0.00,,---,0.00,VWS V14.00,2013-04-27 17:52:00,
2013-04-27 13:53:00,62.2,15.5,30.36,SE,135,6.3,10.1,16,0.00,,---,0.00,VWS V14.00,2013-04-27 17:53:00,
2013-04-27 13:54:00,61.9,15.2,30.36,ESE,112,8.7,9.0,16,0.00,,---,0.00,VWS V14.00,2013-04-27 17:54:00,
2013-04-27 13:58:00,62.1,15.4,30.36,SSE,158,3.1,7.4,16,0.00,,---,0.00,VWS V14.00,2013-04-27 17:58:00,
2013-04-27 13:59:00,62.2,15.5,30.36,SE,135,7.6,7.6,16,0.00,,---,0.00,VWS V14.00,2013-04-27 17:59:00,
2013-04-27 14:00:00,62.2,15.5,30.36,ESE,112,5.4,8.7,16,0.00,,---,0.00,VWS V14.00,2013-04-27 18:00:00,
2013-04-27 14:01:00,62.6,15.8,30.36,ESE,112,4.9,5.4,16,0.00,,---,0.00,VWS V14.00,2013-04-27 18:01:00,
2013-04-27 14:03:00,62.6,15.8,30.36,SSE,158,7.8,10.1,16,0.00,,---,0.00,VWS V14.00,2013-04-27 18:03:00,
2013-04-27 14:05:00,62.1,19.3,30.36,SSE,158,8.7,8.7,19,0.00,,---,0.00,VWS V14.00,2013-04-27 18:05:00,
2013-04-27 14:06:00,61.7,15.1,30.36,SE,135,4.9,8.7,16,0.00,,---,0.00,VWS V14.00,2013-04-27 18:06:00,
2013-04-27 14:09:00,61.3,14.8,30.36,SE,135,10.3,11.0,16,0.00,,---,0.00,VWS V14.00,2013-04-27 18:09:00,
2013-04-27 14:10:00,61.3,14.8,30.36,SSE,158,6.3,10.3,16,0.00,,---,0.00,VWS V14.00,2013-04-27 18:10:00,
2013-04-27 14:11:00,61.3,18.8,30.36,SE,135,6.5,6.5,19,0.00,,---,0.00,VWS V14.00,2013-04-27 18:11:00,
2013-04-27 14:15:00,61.2,18.6,30.36,SE,135,5.6,6.3,19,0.00,,---,0.00,VWS V14.00,2013-04-27 18:15:00,
2013-04-27 14:16:00,61.5,18.9,30.36,ESE,112,6.9,6.9,19,0.00,,---,0.00,VWS V14.00,2013-04-27 18:16:00,
2013-04-27 14:17:00,62.1,19.3,30.36,SE,135,3.4,7.6,19,0.00,,---,0.00,VWS V14.00,2013-04-27 18:17:00,
2013-04-27 14:18:00,61.7,19.0,30.36,SE,135,7.8,7.8,19,0.00,,---,0.00,VWS V14.00,2013-04-27 18:18:00,
2013-04-27 14:20:00,61.3,18.8,30.33,SSE,158,5.6,8.1,19,0.00,,---,0.00,VWS V14.00,2013-04-27 18:20:00,
2013-04-27 14:21:00,61.7,19.0,30.33,SE,135,3.6,5.8,19,0.00,,---,0.00,VWS V14.00,2013-04-27 18:21:00,
2013-04-27 14:22:00,61.9,15.2,30.33,ESE,112,8.5,8.7,16,0.00,,---,0.00,VWS V14.00,2013-04-27 18:22:00,
2013-04-27 14:25:00,61.9,15.2,30.33,ESE,112,9.8,10.1,16,0.00,,---,0.00,VWS V14.00,2013-04-27 18:25:00,
2013-04-27 14:26:00,61.7,15.1,30.33,SE,135,9.8,9.8,16,0.00,,---,0.00,VWS V14.00,2013-04-27 18:26:00,
2013-04-27 14:27:00,61.5,14.9,30.33,ESE,112,8.5,9.8,16,0.00,,---,0.00,VWS V14.00,2013-04-27 18:27:00,
2013-04-27 14:29:00,61.9,15.2,30.33,ESE,112,10.1,10.1,16,0.00,,---,0.00,VWS V14.00,2013-04-27 18:29:00,
2013-04-27 14:32:00,62.2,15.5,30.33,ESE,112,2.9,6.0,16,0.00,,---,0.00,VWS V14.00,2013-04-27 18:32:00,
2013-04-27 14:34:00,62.6,15.8,30.33,SSE,158,6.5,6.5,16,0.00,,---,0.00,VWS V14.00,2013-04-27 18:34:00,
2013-04-27 14:35:00,62.8,15.9,30.33,ENE,68,2.9,7.4,16,0.00,,---,0.00,VWS V14.00,2013-04-27 18:35:00,
2013-04-27 14:37:00,63.7,16.7,30.33,ESE,112,4.3,4.9,16,0.00,,---,0.00,VWS V14.00,2013-04-27 18:37:00,
2013-04-27 14:38:00,63.7,16.7,30.33,ESE,112,4.9,8.5,16,0.00,,---,0.00,VWS V14.00,2013-04-27 18:38:00,
2013-04-27 14:40:00,63.0,16.1,30.33,SSE,158,7.6,7.6,16,0.00,,---,0.00,VWS V14.00,2013-04-27 18:40:00,
2013-04-27 14:42:00,63.0,16.1,30.33,SSE,158,5.6,6.3,16,0.00,,---,0.00,VWS V14.00,2013-04-27 18:42:00,
2013-04-27 14:43:00,62.8,15.9,30.33,ESE,112,7.4,8.7,16,0.00,,---,0.00,VWS V14.00,2013-04-27 18:43:00,
2013-04-27 14:45:00,63.0,18.8,30.33,SSE,158,8.5,8.5,18,0.00,,---,0.00,VWS V14.00,2013-04-27 18:45:00,
2013-04-27 14:47:00,62.6,18.5,30.33,SE,135,5.4,7.6,18,0.00,,---,0.00,VWS V14.00,2013-04-27 18:47:00,
2013-04-27 14:48:00,62.4,15.7,30.33,SSE,158,5.4,8.5,16,0.00,,---,0.00,VWS V14.00,2013-04-27 18:48:00,
2013-04-27 14:49:00,62.2,19.5,30.33,SE,135,4.9,9.8,19,0.00,,---,0.00,VWS V14.00,2013-04-27 18:49:00,
2013-04-27 14:53:00,62.1,19.3,30.33,South,180,6.3,7.6,19,0.00,,---,0.00,VWS V14.00,2013-04-27 18:53:00,
2013-04-27 14:54:00,62.2,19.5,30.33,SSE,158,4.0,6.3,19,0.00,,---,0.00,VWS V14.00,2013-04-27 18:54:00,
2013-04-27 14:57:00,61.7,15.1,30.33,SE,135,8.1,8.1,16,0.00,,---,0.00,VWS V14.00,2013-04-27 18:57:00,
2013-04-27 14:58:00,61.7,19.0,30.33,ESE,112,7.6,8.1,19,0.00,,---,0.00,VWS V14.00,2013-04-27 18:58:00,
2013-04-27 15:00:00,61.9,19.2,30.33,SE,135,7.4,7.4,19,0.00,,---,0.00,VWS V14.00,2013-04-27 19:00:00,
2013-04-27 15:02:00,62.1,19.3,30.33,ESE,112,4.3,7.8,19,0.00,,---,0.00,VWS V14.00,2013-04-27 19:02:00,
2013-04-27 15:04:00,63.3,19.1,30.33,SSE,158,2.2,4.3,18,0.00,,---,0.00,VWS V14.00,2013-04-27 19:04:00,
2013-04-27 15:05:00,63.7,19.4,30.33,South,180,2.9,3.6,18,0.00,,---,0.00,VWS V14.00,2013-04-27 19:05:00,
2013-04-27 15:08:00,63.5,16.5,30.33,ESE,112,6.0,7.4,16,0.00,,---,0.00,VWS V14.00,2013-04-27 19:08:00,
2013-04-27 15:09:00,63.3,16.4,30.33,SE,135,7.6,7.6,16,0.00,,---,0.00,VWS V14.00,2013-04-27 19:09:00,
2013-04-27 15:10:00,63.1,16.2,30.33,SE,135,6.0,7.6,16,0.00,,---,0.00,VWS V14.00,2013-04-27 19:10:00,
2013-04-27 15:11:00,63.1,16.2,30.33,SSE,158,6.5,7.2,16,0.00,,---,0.00,VWS V14.00,2013-04-27 19:11:00,
2013-04-27 15:16:00,63.0,18.8,30.33,SE,135,6.3,8.5,18,0.00,,---,0.00,VWS V14.00,2013-04-27 19:16:00,
2013-04-27 15:17:00,63.1,19.0,30.33,ESE,112,6.0,7.8,18,0.00,,---,0.00,VWS V14.00,2013-04-27 19:17:00,
2013-04-27 15:22:00,63.0,18.8,30.33,SSE,158,3.8,5.8,18,0.00,,---,0.00,VWS V14.00,2013-04-27 19:22:00,
2013-04-27 15:23:00,63.3,19.1,30.33,South,180,7.4,8.1,18,0.00,,---,0.00,VWS V14.00,2013-04-27 19:23:00,
2013-04-27 15:24:00,62.2,19.5,30.33,South,180,7.6,7.6,19,0.00,,---,0.00,VWS V14.00,2013-04-27 19:24:00,
2013-04-27 15:26:00,62.6,18.5,30.33,SSE,158,2.9,7.6,18,0.00,,---,0.00,VWS V14.00,2013-04-27 19:26:00,
2013-04-27 15:27:00,62.6,18.5,30.33,South,180,5.6,6.3,18,0.00,,---,0.00,VWS V14.00,2013-04-27 19:27:00,
2013-04-27 15:29:00,63.0,18.8,30.33,SSE,158,3.6,6.5,18,0.00,,---,0.00,VWS V14.00,2013-04-27 19:29:00,
2013-04-27 15:32:00,62.8,15.9,30.33,ESE,112,7.4,7.6,16,0.00,,---,0.00,VWS V14.00,2013-04-27 19:32:00,
2013-04-27 15:34:00,62.8,15.9,30.33,SE,135,5.8,9.6,16,0.00,,---,0.00,VWS V14.00,2013-04-27 19:34:00,
2013-04-27 15:35:00,63.0,16.1,30.33,ESE,112,5.6,6.5,16,0.00,,---,0.00,VWS V14.00,2013-04-27 19:35:00,
2013-04-27 15:39:00,63.3,16.4,30.33,SSE,158,5.8,6.0,16,0.00,,---,0.00,VWS V14.00,2013-04-27 19:39:00,
2013-04-27 15:40:00,63.5,16.5,30.33,SSE,158,4.9,5.8,16,0.00,,---,0.00,VWS V14.00,2013-04-27 19:40:00,
2013-04-27 15:41:00,63.9,19.6,30.33,SE,135,4.3,4.9,18,0.00,,---,0.00,VWS V14.00,2013-04-27 19:41:00,
2013-04-27 15:44:00,63.5,16.5,30.33,SE,135,7.6,8.7,16,0.00,,---,0.00,VWS V14.00,2013-04-27 19:44:00,
2013-04-27 15:45:00,63.5,16.5,30.33,SSE,158,4.9,7.6,16,0.00,,---,0.00,VWS V14.00,2013-04-27 19:45:00,
2013-04-27 15:46:00,63.5,16.5,30.33,South,180,5.8,5.8,16,0.00,,---,0.00,VWS V14.00,2013-04-27 19:46:00,
2013-04-27 15:48:00,63.3,19.1,30.33,South,180,6.0,7.8,18,0.00,,---,0.00,VWS V14.00,2013-04-27 19:48:00,
2013-04-27 15:51:00,63.5,19.3,30.30,SE,135,2.9,5.6,18,0.00,,---,0.00,VWS V14.00,2013-04-27 19:51:00,
2013-04-27 15:54:00,62.6,18.5,30.30,SSW,202,3.4,7.6,18,0.00,,---,0.00,VWS V14.00,2013-04-27 19:54:00,
2013-04-27 15:55:00,62.8,18.7,30.30,SSW,202,4.0,7.4,18,0.00,,---,0.00,VWS V14.00,2013-04-27 19:55:00,
2013-04-27 15:56:00,63.3,19.1,30.30,South,180,3.1,4.7,18,0.00,,---,0.00,VWS V14.00,2013-04-27 19:56:00,
2013-04-27 15:59:00,64.4,20.0,30.30,SSW,202,3.4,3.4,18,0.00,,---,0.00,VWS V14.00,2013-04-27 19:59:00,
2013-04-27 16:02:00,63.5,19.3,30.30,South,180,4.9,7.4,18,0.00,,---,0.00,VWS V14.00,2013-04-27 20:02:00,
2013-04-27 16:04:00,63.1,19.0,30.33,South,180,8.5,8.5,18,0.00,,---,0.00,VWS V14.00,2013-04-27 20:04:00,
2013-04-27 16:07:00,62.4,19.6,30.33,SSE,158,8.7,8.7,19,0.00,,---,0.00,VWS V14.00,2013-04-27 20:07:00,
2013-04-27 16:10:00,62.4,19.6,30.33,SSE,158,4.7,5.4,19,0.00,,---,0.00,VWS V14.00,2013-04-27 20:10:00,
2013-04-27 16:11:00,62.4,19.6,30.33,SE,135,3.1,6.9,19,0.00,,---,0.00,VWS V14.00,2013-04-27 20:11:00,
2013-04-27 16:12:00,62.4,19.6,30.33,SSE,158,4.0,4.3,19,0.00,,---,0.00,VWS V14.00,2013-04-27 20:12:00,
2013-04-27 16:14:00,62.1,19.3,30.33,SE,135,5.6,6.5,19,0.00,,---,0.00,VWS V14.00,2013-04-27 20:14:00,
2013-04-27 16:16:00,62.1,15.4,30.33,SSE,158,5.4,8.1,16,0.00,,---,0.00,VWS V14.00,2013-04-27 20:16:00,
2013-04-27 16:17:00,62.1,19.3,30.33,SSE,158,7.2,7.2,19,0.00,,---,0.00,VWS V14.00,2013-04-27 20:17:00,
2013-04-27 16:19:00,61.9,19.2,30.33,SSW,202,4.3,6.3,19,0.00,,---,0.00,VWS V14.00,2013-04-27 20:19:00,
2013-04-27 16:22:00,62.6,18.5,30.33,SSE,158,6.9,6.9,18,0.00,,---,0.00,VWS V14.00,2013-04-27 20:22:00,
2013-04-27 16:24:00,62.2,19.5,30.33,SSE,158,6.3,7.4,19,0.00,,---,0.00,VWS V14.00,2013-04-27 20:24:00,
2013-04-27 16:25:00,62.2,19.5,30.33,SSW,202,3.1,6.3,19,0.00,,---,0.00,VWS V14.00,2013-04-27 20:25:00,
2013-04-27 16:27:00,62.8,18.7,30.33,SSE,158,1.6,6.9,18,0.00,,---,0.00,VWS V14.00,2013-04-27 20:27:00,
2013-04-27 16:28:00,63.0,18.8,30.33,SSW,202,6.5,6.5,18,0.00,,---,0.00,VWS V14.00,2013-04-27 20:28:00,
2013-04-27 16:29:00,63.0,18.8,30.33,SE,135,2.7,6.5,18,0.00,,---,0.00,VWS V14.00,2013-04-27 20:29:00,
2013-04-27 16:32:00,63.1,19.0,30.33,SSW,202,3.4,5.8,18,0.00,,---,0.00,VWS V14.00,2013-04-27 20:32:00,
2013-04-27 16:34:00,61.9,19.2,30.30,South,180,9.0,9.8,19,0.00,,---,0.00,VWS V14.00,2013-04-27 20:34:00,
2013-04-27 16:35:00,61.7,19.0,30.30,SSW,202,9.2,9.2,19,0.00,,---,0.00,VWS V14.00,2013-04-27 20:35:00,
2013-04-27 16:37:00,61.9,19.2,30.30,South,180,3.6,6.5,19,0.00,,---,0.00,VWS V14.00,2013-04-27 20:37:00,
2013-04-27 16:39:00,61.7,19.0,30.30,South,180,3.6,7.8,19,0.00,,---,0.00,VWS V14.00,2013-04-27 20:39:00,
2013-04-27 16:40:00,62.1,19.3,30.30,South,180,1.6,5.6,19,0.00,,---,0.00,VWS V14.00,2013-04-27 20:40:00,
2013-04-27 16:41:00,62.2,19.5,30.30,ESE,112,3.8,5.8,19,0.00,,---,0.00,VWS V14.00,2013-04-27 20:41:00,
2013-04-27 16:47:00,62.2,19.5,30.30,SSW,202,5.8,5.8,19,0.00,,---,0.00,VWS V14.00,2013-04-27 20:47:00,
2013-04-27 16:49:00,62.6,18.5,30.33,NNW,338,3.4,5.8,18,0.00,,---,0.00,VWS V14.00,2013-04-27 20:49:00,
2013-04-27 16:50:00,62.6,18.5,30.33,SE,135,6.7,6.7,18,0.00,,---,0.00,VWS V14.00,2013-04-27 20:50:00,
2013-04-27 16:54:00,61.9,19.2,30.33,SSE,158,3.6,6.7,19,0.00,,---,0.00,VWS V14.00,2013-04-27 20:54:00,
2013-04-27 16:56:00,61.7,19.0,30.33,SSE,158,6.0,9.6,19,0.00,,---,0.00,VWS V14.00,2013-04-27 20:56:00,
2013-04-27 16:57:00,61.7,19.0,30.33,South,180,3.4,6.5,19,0.00,,---,0.00,VWS V14.00,2013-04-27 20:57:00,
2013-04-27 16:58:00,61.9,19.2,30.33,ESE,112,5.8,5.8,19,0.00,,---,0.00,VWS V14.00,2013-04-27 20:58:00,
2013-04-27 17:00:00,61.9,19.2,30.33,SSE,158,6.0,6.3,19,0.00,,---,0.00,VWS V14.00,2013-04-27 21:00:00,
2013-04-27 17:01:00,62.1,15.4,30.33,SE,135,3.1,6.0,16,0.00,,---,0.00,VWS V14.00,2013-04-27 21:01:00,
2013-04-27 17:06:00,62.1,15.4,30.33,SE,135,6.0,6.0,16,0.00,,---,0.00,VWS V14.00,2013-04-27 21:06:00,
2013-04-27 17:08:00,61.7,15.1,30.33,SSE,158,3.1,7.2,16,0.00,,---,0.00,VWS V14.00,2013-04-27 21:08:00,
2013-04-27 17:10:00,61.3,14.8,30.33,South,180,4.0,6.5,16,0.00,,---,0.00,VWS V14.00,2013-04-27 21:10:00,
2013-04-27 17:11:00,61.3,14.8,30.33,SSE,158,8.1,8.1,16,0.00,,---,0.00,VWS V14.00,2013-04-27 21:11:00,
2013-04-27 17:15:00,60.8,14.4,30.33,SE,135,9.4,9.4,16,0.00,,---,0.00,VWS V14.00,2013-04-27 21:15:00,
2013-04-27 17:18:00,60.8,14.4,30.33,South,180,1.1,6.5,16,0.00,,---,0.00,VWS V14.00,2013-04-27 21:18:00,
2013-04-27 17:19:00,60.8,14.4,30.33,SE,135,3.6,4.0,16,0.00,,---,0.00,VWS V14.00,2013-04-27 21:19:00,
2013-04-27 17:23:00,61.2,18.6,30.33,SSE,158,3.8,6.0,19,0.00,,---,0.00,VWS V14.00,2013-04-27 21:23:00,
2013-04-27 17:24:00,61.2,18.6,30.33,South,180,7.4,8.5,19,0.00,,---,0.00,VWS V14.00,2013-04-27 21:24:00,
2013-04-27 17:25:00,61.2,14.6,30.33,SE,135,6.0,7.4,16,0.00,,---,0.00,VWS V14.00,2013-04-27 21:25:00,
2013-04-27 17:26:00,61.2,14.6,30.33,South,180,2.9,6.0,16,0.00,,---,0.00,VWS V14.00,2013-04-27 21:26:00,
2013-04-27 17:27:00,61.3,18.8,30.33,SSW,202,3.6,4.5,19,0.00,,---,0.00,VWS V14.00,2013-04-27 21:27:00,
2013-04-27 17:30:00,61.2,14.6,30.33,SSE,158,5.6,7.8,16,0.00,,---,0.00,VWS V14.00,2013-04-27 21:30:00,
2013-04-27 17:31:00,61.2,14.6,30.33,SSW,202,5.4,6.5,16,0.00,,---,0.00,VWS V14.00,2013-04-27 21:31:00,
2013-04-27 17:34:00,61.0,14.5,30.33,South,180,6.5,8.7,16,0.00,,---,0.00,VWS V14.00,2013-04-27 21:34:00,
2013-04-27 17:35:00,60.8,14.4,30.33,South,180,5.8,8.1,16,0.00,,---,0.00,VWS V14.00,2013-04-27 21:35:00,
2013-04-27 17:37:00,60.8,14.4,30.33,SSE,158,6.0,8.7,16,0.00,,---,0.00,VWS V14.00,2013-04-27 21:37:00,
2013-04-27 17:38:00,60.6,15.6,30.33,South,180,8.5,10.5,17,0.00,,---,0.00,VWS V14.00,2013-04-27 21:38:00,
2013-04-27 17:40:00,60.6,15.6,30.33,SSW,202,4.0,7.8,17,0.00,,---,0.00,VWS V14.00,2013-04-27 21:40:00,
2013-04-27 17:42:00,60.6,15.6,30.33,SSE,158,5.8,6.0,17,0.00,,---,0.00,VWS V14.00,2013-04-27 21:42:00,
2013-04-27 17:43:00,60.6,15.6,30.33,SSE,158,6.5,9.4,17,0.00,,---,0.00,VWS V14.00,2013-04-27 21:43:00,
2013-04-27 17:44:00,60.4,15.4,30.33,SSE,158,6.0,6.5,17,0.00,,---,0.00,VWS V14.00,2013-04-27 21:44:00,
2013-04-27 17:46:00,60.6,18.2,30.33,SSE,158,4.3,6.0,19,0.00,,---,0.00,VWS V14.00,2013-04-27 21:46:00,
2013-04-27 17:48:00,60.8,14.4,30.33,SSE,158,2.7,5.4,16,0.00,,---,0.00,VWS V14.00,2013-04-27 21:48:00,
2013-04-27 17:49:00,60.8,14.4,30.33,SSE,158,7.4,7.4,16,0.00,,---,0.00,VWS V14.00,2013-04-27 21:49:00,
2013-04-27 17:50:00,60.6,15.6,30.33,SSW,202,3.6,7.6,17,0.00,,---,0.00,VWS V14.00,2013-04-27 21:50:00,
2013-04-27 17:53:00,60.6,15.6,30.33,SSE,158,2.0,6.0,17,0.00,,---,0.00,VWS V14.00,2013-04-27 21:53:00,
2013-04-27 17:56:00,61.0,14.5,30.33,SSE,158,4.3,4.3,16,0.00,,---,0.00,VWS V14.00,2013-04-27 21:56:00,
2013-04-27 17:57:00,61.0,14.5,30.33,South,180,4.7,5.8,16,0.00,,---,0.00,VWS V14.00,2013-04-27 21:57:00,
2013-04-27 17:58:00,61.0,14.5,30.33,SSE,158,6.0,6.0,16,0.00,,---,0.00,VWS V14.00,2013-04-27 21:58:00,
2013-04-27 17:59:00,60.8,14.4,30.33,South,180,7.2,7.2,16,0.00,,---,0.00,VWS V14.00,2013-04-27 21:59:00,
2013-04-27 18:04:00,60.4,18.0,30.33,South,180,4.7,8.5,19,0.00,,---,0.00,VWS V14.00,2013-04-27 22:04:00,
2013-04-27 18:05:00,60.4,18.0,30.33,SSW,202,5.4,6.5,19,0.00,,---,0.00,VWS V14.00,2013-04-27 22:05:00,
2013-04-27 18:06:00,60.4,18.0,30.33,SSW,202,3.4,5.4,19,0.00,,---,0.00,VWS V14.00,2013-04-27 22:06:00,
2013-04-27 18:07:00,60.6,18.2,30.33,SSE,158,2.5,3.4,19,0.00,,---,0.00,VWS V14.00,2013-04-27 22:07:00,
2013-04-27 18:10:00,60.4,18.0,30.33,South,180,3.6,5.4,19,0.00,,---,0.00,VWS V14.00,2013-04-27 22:10:00,
2013-04-27 18:11:00,60.4,18.0,30.33,SSE,158,7.8,8.1,19,0.00,,---,0.00,VWS V14.00,2013-04-27 22:11:00,
2013-04-27 18:12:00,60.3,17.9,30.33,South,180,4.7,7.8,19,0.00,,---,0.00,VWS V14.00,2013-04-27 22:12:00,
2013-04-27 18:18:00,60.3,15.3,30.33,SSE,158,3.4,4.3,17,0.00,,---,0.00,VWS V14.00,2013-04-27 22:18:00,
2013-04-27 18:19:00,60.3,17.9,30.33,South,180,0.9,3.4,19,0.00,,---,0.00,VWS V14.00,2013-04-27 22:19:00,
2013-04-27 18:20:00,60.1,17.7,30.33,South,180,6.5,6.5,19,0.00,,---,0.00,VWS V14.00,2013-04-27 22:20:00,
2013-04-27 18:22:00,60.3,17.9,30.33,SSE,158,3.6,5.6,19,0.00,,---,0.00,VWS V14.00,2013-04-27 22:22:00,
2013-04-27 18:24:00,60.3,17.9,30.33,South,180,3.1,3.1,19,0.00,,---,0.00,VWS V14.00,2013-04-27 22:24:00,
2013-04-27 18:25:00,60.3,17.9,30.33,SSE,158,2.7,4.9,19,0.00,,---,0.00,VWS V14.00,2013-04-27 22:25:00,
2013-04-27 18:27:00,60.1,17.7,30.33,South,180,7.8,7.8,19,0.00,,---,0.00,VWS V14.00,2013-04-27 22:27:00,
2013-04-27 18:29:00,59.5,17.3,30.33,SSW,202,4.7,7.8,19,0.00,,---,0.00,VWS V14.00,2013-04-27 22:29:00,
2013-04-27 18:31:00,59.9,17.6,30.33,WSW,248,2.7,3.8,19,0.00,,---,0.00,VWS V14.00,2013-04-27 22:31:00,
2013-04-27 18:33:00,59.7,17.4,30.33,South,180,3.8,5.8,19,0.00,,---,0.00,VWS V14.00,2013-04-27 22:33:00,
2013-04-27 18:36:00,59.5,17.3,30.30,SSW,202,6.5,6.5,19,0.00,,---,0.00,VWS V14.00,2013-04-27 22:36:00,
2013-04-27 18:38:00,59.2,17.0,30.30,South,180,5.6,6.3,19,0.00,,---,0.00,VWS V14.00,2013-04-27 22:38:00,
2013-04-27 18:40:00,59.2,17.0,30.30,SSW,202,5.4,6.0,19,0.00,,---,0.00,VWS V14.00,2013-04-27 22:40:00,
2013-04-27 18:41:00,59.0,16.8,30.30,SSE,158,2.7,5.8,19,0.00,,---,0.00,VWS V14.00,2013-04-27 22:41:00,
2013-04-27 18:44:00,59.0,16.8,30.30,SSW,202,2.0,4.5,19,0.00,,---,0.00,VWS V14.00,2013-04-27 22:44:00,
2013-04-27 18:45:00,58.8,16.7,30.30,SSW,202,3.4,6.0,19,0.00,,---,0.00,VWS V14.00,2013-04-27 22:45:00,
2013-04-27 18:46:00,58.8,16.7,30.30,South,180,6.3,6.3,19,0.00,,---,0.00,VWS V14.00,2013-04-27 22:46:00,
2013-04-27 18:48:00,58.6,16.5,30.30,SSW,202,3.6,6.5,19,0.00,,---,0.00,VWS V14.00,2013-04-27 22:48:00,
2013-04-27 18:49:00,58.5,16.4,30.30,SW,225,3.4,4.0,19,0.00,,---,0.00,VWS V14.00,2013-04-27 22:49:00,
2013-04-27 18:51:00,58.5,16.4,30.30,SW,225,4.3,4.7,19,0.00,,---,0.00,VWS V14.00,2013-04-27 22:51:00,
2013-04-27 18:52:00,58.5,16.4,30.30,West,270,6.3,6.3,19,0.00,,---,0.00,VWS V14.00,2013-04-27 22:52:00,
2013-04-27 18:53:00,58.3,16.2,30.30,SSW,202,2.9,6.3,19,0.00,,---,0.00,VWS V14.00,2013-04-27 22:53:00,
2013-04-27 18:57:00,57.9,15.9,30.30,SSW,202,5.4,7.6,19,0.00,,---,0.00,VWS V14.00,2013-04-27 22:57:00,
2013-04-27 18:58:00,57.7,15.8,30.30,SSW,202,4.0,6.3,19,0.00,,---,0.00,VWS V14.00,2013-04-27 22:58:00,
2013-04-27 19:02:00,57.7,15.8,30.30,SSE,158,3.1,6.5,19,0.00,,---,0.00,VWS V14.00,2013-04-27 23:02:00,
2013-04-27 19:04:00,57.6,15.6,30.30,South,180,2.9,5.8,19,0.00,,---,0.00,VWS V14.00,2013-04-27 23:04:00,
2013-04-27 19:05:00,57.6,15.6,30.30,SW,225,3.4,4.0,19,0.00,,---,0.00,VWS V14.00,2013-04-27 23:05:00,
2013-04-27 19:06:00,57.6,15.6,30.30,SSW,202,7.4,7.4,19,0.00,,---,0.00,VWS V14.00,2013-04-27 23:06:00,
2013-04-27 19:07:00,57.4,15.5,30.30,South,180,3.4,7.6,19,0.00,,---,0.00,VWS V14.00,2013-04-27 23:07:00,
2013-04-27 19:10:00,57.4,15.5,30.30,South,180,3.6,8.7,19,0.00,,---,0.00,VWS V14.00,2013-04-27 23:10:00,
2013-04-27 19:11:00,57.2,15.3,30.30,SSW,202,2.0,4.3,19,0.00,,---,0.00,VWS V14.00,2013-04-27 23:11:00,
2013-04-27 19:12:00,57.2,15.3,30.30,SW,225,2.9,5.4,19,0.00,,---,0.00,VWS V14.00,2013-04-27 23:12:00,
2013-04-27 19:15:00,57.2,15.3,30.30,South,180,4.3,4.3,19,0.00,,---,0.00,VWS V14.00,2013-04-27 23:15:00,
2013-04-27 19:18:00,57.2,15.3,30.30,WSW,248,3.4,7.2,19,0.00,,---,0.00,VWS V14.00,2013-04-27 23:18:00,
2013-04-27 19:19:00,57.0,16.4,30.30,SSW,202,6.3,6.3,20,0.00,,---,0.00,VWS V14.00,2013-04-27 23:19:00,
2013-04-27 19:21:00,56.8,16.2,30.30,WSW,248,9.6,9.6,20,0.00,,---,0.00,VWS V14.00,2013-04-27 23:21:00,
2013-04-27 19:22:00,56.8,16.2,30.30,SSW,202,4.0,9.6,20,0.00,,---,0.00,VWS V14.00,2013-04-27 23:22:00,
2013-04-27 19:24:00,56.8,16.2,30.30,SSW,202,3.6,7.8,20,0.00,,---,0.00,VWS V14.00,2013-04-27 23:24:00,
2013-04-27 19:25:00,56.7,16.1,30.30,SSW,202,8.1,8.1,20,0.00,,---,0.00,VWS V14.00,2013-04-27 23:25:00,
2013-04-27 19:29:00,56.5,15.9,30.30,SSW,202,3.8,3.8,20,0.00,,---,0.00,VWS V14.00,2013-04-27 23:29:00,
2013-04-27 19:30:00,56.3,15.8,30.30,SSW,202,2.7,5.8,20,0.00,,---,0.00,VWS V14.00,2013-04-27 23:30:00,
2013-04-27 19:35:00,56.1,15.6,30.30,SSW,202,3.4,4.0,20,0.00,,---,0.00,VWS V14.00,2013-04-27 23:35:00,
2013-04-27 19:36:00,55.9,15.5,30.30,SW,225,4.9,4.9,20,0.00,,---,0.00,VWS V14.00,2013-04-27 23:36:00,
2013-04-27 19:37:00,55.9,15.5,30.30,SSW,202,5.4,6.5,20,0.00,,---,0.00,VWS V14.00,2013-04-27 23:37:00,
2013-04-27 19:42:00,55.8,15.3,30.30,SSW,202,4.0,4.0,20,0.00,,---,0.00,VWS V14.00,2013-04-27 23:42:00,
2013-04-27 19:44:00,55.6,15.2,30.30,South,180,3.1,5.8,20,0.00,,---,0.00,VWS V14.00,2013-04-27 23:44:00,
2013-04-27 19:46:00,55.6,15.2,30.30,SSW,202,4.3,4.3,20,0.00,,---,0.00,VWS V14.00,2013-04-27 23:46:00,
2013-04-27 19:48:00,55.6,15.2,30.30,South,180,2.5,5.8,20,0.00,,---,0.00,VWS V14.00,2013-04-27 23:48:00,
2013-04-27 19:51:00,55.6,15.2,30.30,SSW,202,3.1,4.7,20,0.00,,---,0.00,VWS V14.00,2013-04-27 23:51:00,
2013-04-27 19:53:00,55.4,15.0,30.30,SW,225,4.3,5.8,20,0.00,,---,0.00,VWS V14.00,2013-04-27 23:53:00,
2013-04-27 19:55:00,55.4,15.0,30.30,SSW,202,2.7,6.3,20,0.00,,---,0.00,VWS V14.00,2013-04-27 23:55:00,
2013-04-27 19:57:00,55.4,15.0,30.30,SSW,202,3.4,4.0,20,0.00,,---,0.00,VWS V14.00,2013-04-27 23:57:00,
2013-04-27 19:58:00,55.4,15.0,30.30,SSW,202,3.4,6.5,20,0.00,,---,0.00,VWS V14.00,2013-04-27 23:58:00,
2013-04-27 19:59:00,55.4,15.0,30.30,SSW,202,4.3,4.3,20,0.00,,---,0.00,VWS V14.00,2013-04-27 23:59:00,
2013-04-27 20:01:00,55.4,15.0,30.30,SW,225,2.0,4.3,20,0.00,,---,0.00,VWS V14.00,2013-04-28 00:01:00,
2013-04-27 20:03:00,55.4,15.0,30.30,SSW,202,2.7,2.9,20,0.00,,---,0.00,VWS V14.00,2013-04-28 00:03:00,
2013-04-27 20:05:00,55.2,14.9,30.30,WSW,248,1.3,4.9,20,0.00,,---,0.00,VWS V14.00,2013-04-28 00:05:00,
2013-04-27 20:07:00,55.2,14.9,30.30,SSW,202,2.9,5.4,20,0.00,,---,0.00,VWS V14.00,2013-04-28 00:07:00,
2013-04-27 20:09:00,55.2,14.9,30.30,SSW,202,2.9,4.9,20,0.00,,---,0.00,VWS V14.00,2013-04-28 00:09:00,
2013-04-27 20:10:00,55.2,14.9,30.30,South,180,4.7,4.7,20,0.00,,---,0.00,VWS V14.00,2013-04-28 00:10:00,
2013-04-27 20:13:00,55.2,14.9,30.30,SSW,202,2.5,4.7,20,0.00,,---,0.00,VWS V14.00,2013-04-28 00:13:00,
2013-04-27 20:14:00,55.2,14.9,30.30,SSW,202,3.1,3.6,20,0.00,,---,0.00,VWS V14.00,2013-04-28 00:14:00,
2013-04-27 20:15:00,55.2,14.9,30.30,SW,225,3.6,3.6,20,0.00,,---,0.00,VWS V14.00,2013-04-28 00:15:00,
2013-04-27 20:17:00,55.2,12.5,30.30,SSW,202,1.1,4.3,18,0.00,,---,0.00,VWS V14.00,2013-04-28 00:17:00,
2013-04-27 20:20:00,55.2,12.5,30.30,West,270,5.6,5.6,18,0.00,,---,0.00,VWS V14.00,2013-04-28 00:20:00,
2013-04-27 20:21:00,55.2,12.5,30.30,SW,225,2.7,5.6,18,0.00,,---,0.00,VWS V14.00,2013-04-28 00:21:00,
2013-04-27 20:24:00,55.2,12.5,30.30,SSW,202,1.3,4.9,18,0.00,,---,0.00,VWS V14.00,2013-04-28 00:24:00,
2013-04-27 20:27:00,55.2,12.5,30.30,SW,225,0.9,3.8,18,0.00,,---,0.00,VWS V14.00,2013-04-28 00:27:00,
2013-04-27 20:28:00,55.0,12.3,30.30,West,270,1.6,2.5,18,0.00,,---,0.00,VWS V14.00,2013-04-28 00:28:00,
2013-04-27 20:29:00,55.0,12.3,30.30,SW,225,4.3,4.3,18,0.00,,---,0.00,VWS V14.00,2013-04-28 00:29:00,
2013-04-27 20:33:00,55.0,12.3,30.30,SSW,202,2.9,3.8,18,0.00,,---,0.00,VWS V14.00,2013-04-28 00:33:00,
2013-04-27 20:34:00,55.0,12.3,30.30,SW,225,2.5,2.9,18,0.00,,---,0.00,VWS V14.00,2013-04-28 00:34:00,
2013-04-27 20:35:00,55.0,12.3,30.30,SW,225,3.1,4.0,18,0.00,,---,0.00,VWS V14.00,2013-04-28 00:35:00,
2013-04-27 20:36:00,54.9,12.2,30.30,SW,225,0.0,3.1,18,0.00,,---,0.00,VWS V14.00,2013-04-28 00:36:00,
2013-04-27 20:38:00,54.9,12.2,30.30,SW,225,2.7,3.1,18,0.00,,---,0.00,VWS V14.00,2013-04-28 00:38:00,
2013-04-27 20:42:00,54.7,12.0,30.30,SSW,202,0.0,2.5,18,0.00,,---,0.00,VWS V14.00,2013-04-28 00:42:00,
2013-04-27 20:43:00,54.7,12.0,30.30,SSW,202,2.5,2.5,18,0.00,,---,0.00,VWS V14.00,2013-04-28 00:43:00,
2013-04-27 20:44:00,54.7,12.0,30.30,SW,225,1.1,3.1,18,0.00,,---,0.00,VWS V14.00,2013-04-28 00:44:00,
2013-04-27 20:45:00,54.5,11.9,30.30,SW,225,0.0,1.1,18,0.00,,---,0.00,VWS V14.00,2013-04-28 00:45:00,
2013-04-27 20:49:00,54.3,11.7,30.30,SSW,202,0.0,2.2,18,0.00,,---,0.00,VWS V14.00,2013-04-28 00:49:00,
2013-04-27 20:50:00,54.3,11.7,30.30,SSW,202,3.1,3.1,18,0.00,,---,0.00,VWS V14.00,2013-04-28 00:50:00,
2013-04-27 20:52:00,54.3,11.7,30.30,SSW,202,3.4,3.8,18,0.00,,---,0.00,VWS V14.00,2013-04-28 00:52:00,
2013-04-27 20:55:00,54.3,11.7,30.30,SSW,202,2.0,3.4,18,0.00,,---,0.00,VWS V14.00,2013-04-28 00:55:00,
2013-04-27 20:56:00,54.3,11.7,30.30,SW,225,2.0,2.0,18,0.00,,---,0.00,VWS V14.00,2013-04-28 00:56:00,
2013-04-27 20:58:00,54.3,11.7,30.30,SSW,202,3.4,3.8,18,0.00,,---,0.00,VWS V14.00,2013-04-28 00:58:00,
2013-04-27 20:59:00,54.3,11.7,30.30,SSW,202,2.9,3.4,18,0.00,,---,0.00,VWS V14.00,2013-04-28 00:59:00,
2013-04-27 21:01:00,54.3,11.7,30.30,SSW,202,1.1,3.4,18,0.00,,---,0.00,VWS V14.00,2013-04-28 01:01:00,
2013-04-27 21:02:00,54.3,11.7,30.30,SW,225,2.2,2.9,18,0.00,,---,0.00,VWS V14.00,2013-04-28 01:02:00,
2013-04-27 21:03:00,54.3,11.7,30.30,SSW,202,1.6,2.2,18,0.00,,---,0.00,VWS V14.00,2013-04-28 01:03:00,
2013-04-27 21:05:00,54.1,11.6,30.30,SSW,202,2.2,4.0,18,0.00,,---,0.00,VWS V14.00,2013-04-28 01:05:00,
2013-04-27 21:06:00,54.1,11.6,30.30,SSW,202,2.9,2.9,18,0.00,,---,0.00,VWS V14.00,2013-04-28 01:06:00,
2013-04-27 21:09:00,54.1,11.6,30.30,WSW,248,3.6,3.6,18,0.00,,---,0.00,VWS V14.00,2013-04-28 01:09:00,
2013-04-27 21:11:00,54.1,11.6,30.30,SSW,202,3.4,3.4,18,0.00,,---,0.00,VWS V14.00,2013-04-28 01:11:00,
2013-04-27 21:12:00,54.1,11.6,30.30,SSW,202,2.7,3.4,18,0.00,,---,0.00,VWS V14.00,2013-04-28 01:12:00,
2013-04-27 21:13:00,54.1,11.6,30.30,SSW,202,1.6,3.1,18,0.00,,---,0.00,VWS V14.00,2013-04-28 01:13:00,
2013-04-27 21:17:00,54.0,11.4,30.30,SSW,202,3.6,3.6,18,0.00,,---,0.00,VWS V14.00,2013-04-28 01:17:00,
2013-04-27 21:18:00,54.0,11.4,30.30,SSW,202,3.1,3.6,18,0.00,,---,0.00,VWS V14.00,2013-04-28 01:18:00,
2013-04-27 21:19:00,54.1,11.6,30.30,SSW,202,2.5,4.0,18,0.00,,---,0.00,VWS V14.00,2013-04-28 01:19:00,
2013-04-27 21:20:00,54.0,11.4,30.30,SW,225,1.6,3.1,18,0.00,,---,0.00,VWS V14.00,2013-04-28 01:20:00,
2013-04-27 21:23:00,54.0,11.4,30.30,SSW,202,3.4,3.4,18,0.00,,---,0.00,VWS V14.00,2013-04-28 01:23:00,
2013-04-27 21:25:00,54.0,11.4,30.30,SSW,202,2.9,3.6,18,0.00,,---,0.00,VWS V14.00,2013-04-28 01:25:00,
2013-04-27 21:26:00,54.0,11.4,30.30,SSW,202,1.1,2.9,18,0.00,,---,0.00,VWS V14.00,2013-04-28 01:26:00,
2013-04-27 21:27:00,54.0,11.4,30.30,SSW,202,3.1,3.1,18,0.00,,---,0.00,VWS V14.00,2013-04-28 01:27:00,
2013-04-27 21:28:00,54.0,11.4,30.30,SSW,202,1.3,4.9,18,0.00,,---,0.00,VWS V14.00,2013-04-28 01:28:00,
2013-04-27 21:30:00,53.8,11.3,30.30,SW,225,1.1,2.0,18,0.00,,---,0.00,VWS V14.00,2013-04-28 01:30:00,
2013-04-27 21:31:00,53.8,11.3,30.30,SW,225,0.0,1.1,18,0.00,,---,0.00,VWS V14.00,2013-04-28 01:31:00,
2013-04-27 21:33:00,53.8,11.3,30.30,SW,225,1.1,3.4,18,0.00,,---,0.00,VWS V14.00,2013-04-28 01:33:00,
2013-04-27 21:34:00,53.6,11.1,30.33,WSW,248,1.6,3.4,18,0.00,,---,0.00,VWS V14.00,2013-04-28 01:34:00,
2013-04-27 21:37:00,53.6,11.1,30.33,SSW,202,2.5,2.5,18,0.00,,---,0.00,VWS V14.00,2013-04-28 01:37:00,
2013-04-27 21:39:00,53.8,11.3,30.33,SW,225,1.3,2.7,18,0.00,,---,0.00,VWS V14.00,2013-04-28 01:39:00,
2013-04-27 21:40:00,53.6,11.1,30.33,SSW,202,5.6,5.6,18,0.00,,---,0.00,VWS V14.00,2013-04-28 01:40:00,
2013-04-27 21:42:00,53.8,11.3,30.33,SW,225,1.6,2.5,18,0.00,,---,0.00,VWS V14.00,2013-04-28 01:42:00,
2013-04-27 21:43:00,53.6,11.1,30.33,SSW,202,1.6,4.3,18,0.00,,---,0.00,VWS V14.00,2013-04-28 01:43:00,
2013-04-27 21:45:00,53.8,11.3,30.33,WSW,248,3.1,4.7,18,0.00,,---,0.00,VWS V14.00,2013-04-28 01:45:00,
2013-04-27 21:46:00,53.6,11.1,30.33,WSW,248,3.6,3.8,18,0.00,,---,0.00,VWS V14.00,2013-04-28 01:46:00,
2013-04-27 21:50:00,53.4,11.0,30.33,SSW,202,0.9,0.9,18,0.00,,---,0.00,VWS V14.00,2013-04-28 01:50:00,
2013-04-27 21:51:00,53.2,10.9,30.33,WSW,248,1.6,2.5,18,0.00,,---,0.00,VWS V14.00,2013-04-28 01:51:00,
2013-04-27 21:52:00,53.2,10.9,30.33,SW,225,1.6,1.6,18,0.00,,---,0.00,VWS V14.00,2013-04-28 01:52:00,
2013-04-27 21:55:00,53.1,10.7,30.33,West,270,0.0,1.1,18,0.00,,---,0.00,VWS V14.00,2013-04-28 01:55:00,
2013-04-27 21:56:00,53.1,10.7,30.33,SSW,202,1.3,2.0,18,0.00,,---,0.00,VWS V14.00,2013-04-28 01:56:00,
2013-04-27 21:58:00,53.1,10.7,30.33,SW,225,0.0,1.3,18,0.00,,---,0.00,VWS V14.00,2013-04-28 01:58:00,
2013-04-27 22:00:00,52.9,10.6,30.33,SSW,202,2.5,2.5,18,0.00,,---,0.00,VWS V14.00,2013-04-28 02:00:00,
2013-04-27 22:01:00,52.9,10.6,30.33,SSW,202,1.3,2.5,18,0.00,,---,0.00,VWS V14.00,2013-04-28 02:01:00,
2013-04-27 22:04:00,52.9,10.6,30.33,SSW,202,2.2,3.1,18,0.00,,---,0.00,VWS V14.00,2013-04-28 02:04:00,
2013-04-27 22:05:00,52.9,10.6,30.30,SSW,202,0.0,2.5,18,0.00,,---,0.00,VWS V14.00,2013-04-28 02:05:00,
2013-04-27 22:08:00,52.7,10.4,30.30,SSW,202,0.0,0.0,18,0.00,,---,0.00,VWS V14.00,2013-04-28 02:08:00,
2013-04-27 22:09:00,52.7,10.4,30.30,SSW,202,0.0,0.0,18,0.00,,---,0.00,VWS V14.00,2013-04-28 02:09:00,
2013-04-27 22:10:00,52.7,10.4,30.30,SSW,202,0.0,0.0,18,0.00,,---,0.00,VWS V14.00,2013-04-28 02:10:00,
2013-04-27 22:11:00,52.5,10.2,30.30,SSW,202,0.0,0.0,18,0.00,,---,0.00,VWS V14.00,2013-04-28 02:11:00,
2013-04-27 22:13:00,52.5,10.2,30.30,SSW,202,0.0,0.0,18,0.00,,---,0.00,VWS V14.00,2013-04-28 02:13:00,
2013-04-27 22:16:00,52.5,10.2,30.30,SSW,202,0.0,0.0,18,0.00,,---,0.00,VWS V14.00,2013-04-28 02:16:00,
2013-04-27 22:17:00,52.3,10.1,30.30,SSW,202,0.0,0.0,18,0.00,,---,0.00,VWS V14.00,2013-04-28 02:17:00,
2013-04-27 22:18:00,52.3,10.1,30.30,SSW,202,0.0,0.0,18,0.00,,---,0.00,VWS V14.00,2013-04-28 02:18:00,
2013-04-27 22:21:00,52.2,10.0,30.30,SSW,202,0.0,0.0,18,0.00,,---,0.00,VWS V14.00,2013-04-28 02:21:00,
2013-04-27 22:23:00,52.2,10.0,30.30,SSW,202,0.0,0.0,18,0.00,,---,0.00,VWS V14.00,2013-04-28 02:23:00,
2013-04-27 22:24:00,52.2,10.0,30.30,SSW,202,0.0,0.0,18,0.00,,---,0.00,VWS V14.00,2013-04-28 02:24:00,
2013-04-27 22:26:00,52.0,9.8,30.30,SSW,202,0.0,0.0,18,0.00,,---,0.00,VWS V14.00,2013-04-28 02:26:00,
2013-04-27 22:27:00,52.0,9.8,30.30,SSW,202,0.0,0.0,18,0.00,,---,0.00,VWS V14.00,2013-04-28 02:27:00,
2013-04-27 22:29:00,51.8,9.7,30.30,SSW,202,0.0,0.0,18,0.00,,---,0.00,VWS V14.00,2013-04-28 02:29:00,
2013-04-27 22:30:00,51.6,10.7,30.30,SSW,202,0.0,0.0,19,0.00,,---,0.00,VWS V14.00,2013-04-28 02:30:00,
2013-04-27 22:31:00,51.6,10.7,30.30,SSW,202,0.0,0.0,19,0.00,,---,0.00,VWS V14.00,2013-04-28 02:31:00,
2013-04-27 22:35:00,51.6,10.7,30.30,SSW,202,0.0,0.0,19,0.00,,---,0.00,VWS V14.00,2013-04-28 02:35:00,
2013-04-27 22:36:00,51.6,10.7,30.30,SSW,202,0.0,0.0,19,0.00,,---,0.00,VWS V14.00,2013-04-28 02:36:00,
2013-04-27 22:38:00,51.6,10.7,30.30,SSW,202,0.0,0.0,19,0.00,,---,0.00,VWS V14.00,2013-04-28 02:38:00,
2013-04-27 22:39:00,51.6,10.7,30.30,SSW,202,0.0,0.0,19,0.00,,---,0.00,VWS V14.00,2013-04-28 02:39:00,
2013-04-27 22:43:00,51.3,10.4,30.30,WSW,248,0.0,0.0,19,0.00,,---,0.00,VWS V14.00,2013-04-28 02:43:00,
2013-04-27 22:44:00,51.4,10.6,30.30,SW,225,0.0,0.0,19,0.00,,---,0.00,VWS V14.00,2013-04-28 02:44:00,
2013-04-27 22:45:00,51.3,10.4,30.30,SSW,202,0.0,0.0,19,0.00,,---,0.00,VWS V14.00,2013-04-28 02:45:00,
2013-04-27 22:47:00,51.3,10.4,30.30,SSW,202,0.0,0.0,19,0.00,,---,0.00,VWS V14.00,2013-04-28 02:47:00,
2013-04-27 22:49:00,51.1,10.3,30.30,SSW,202,0.0,0.0,19,0.00,,---,0.00,VWS V14.00,2013-04-28 02:49:00,
2013-04-27 22:50:00,51.1,10.3,30.30,SSW,202,0.0,0.0,19,0.00,,---,0.00,VWS V14.00,2013-04-28 02:50:00,
2013-04-27 22:52:00,50.9,10.1,30.30,SSW,202,0.0,0.0,19,0.00,,---,0.00,VWS V14.00,2013-04-28 02:52:00,
2013-04-27 22:54:00,50.9,10.1,30.30,SSW,202,0.0,0.0,19,0.00,,---,0.00,VWS V14.00,2013-04-28 02:54:00,
2013-04-27 22:55:00,50.7,10.0,30.30,SSW,202,0.0,0.0,19,0.00,,---,0.00,VWS V14.00,2013-04-28 02:55:00,
2013-04-27 22:58:00,50.5,9.8,30.30,SSW,202,0.0,0.0,19,0.00,,---,0.00,VWS V14.00,2013-04-28 02:58:00,
2013-04-27 22:59:00,50.5,9.8,30.30,SSW,202,0.0,0.0,19,0.00,,---,0.00,VWS V14.00,2013-04-28 02:59:00,
2013-04-27 23:00:00,50.5,9.8,30.30,SSW,202,0.0,0.0,19,0.00,,---,0.00,VWS V14.00,2013-04-28 03:00:00,
2013-04-27 23:01:00,50.5,9.8,30.30,SSW,202,0.0,0.0,19,0.00,,---,0.00,VWS V14.00,2013-04-28 03:01:00,
2013-04-27 23:05:00,50.2,9.5,30.30,SSW,202,0.0,0.0,19,0.00,,---,0.00,VWS V14.00,2013-04-28 03:05:00,
2013-04-27 23:06:00,50.2,9.5,30.30,SSW,202,0.0,0.0,19,0.00,,---,0.00,VWS V14.00,2013-04-28 03:06:00,
2013-04-27 23:07:00,50.2,9.5,30.30,SSW,202,0.0,0.0,19,0.00,,---,0.00,VWS V14.00,2013-04-28 03:07:00,
2013-04-27 23:09:00,50.2,9.5,30.30,SSW,202,0.0,0.0,19,0.00,,---,0.00,VWS V14.00,2013-04-28 03:09:00,
2013-04-27 23:10:00,50.4,9.7,30.30,SSW,202,0.0,0.0,19,0.00,,---,0.00,VWS V14.00,2013-04-28 03:10:00,
2013-04-27 23:13:00,50.2,9.5,30.30,SSW,202,0.0,0.0,19,0.00,,---,0.00,VWS V14.00,2013-04-28 03:13:00,
2013-04-27 23:14:00,50.2,9.5,30.30,SSW,202,0.0,0.0,19,0.00,,---,0.00,VWS V14.00,2013-04-28 03:14:00,
2013-04-27 23:17:00,50.2,9.5,30.30,SSW,202,0.0,0.0,19,0.00,,---,0.00,VWS V14.00,2013-04-28 03:17:00,
2013-04-27 23:18:00,50.2,9.5,30.30,SSW,202,0.0,0.0,19,0.00,,---,0.00,VWS V14.00,2013-04-28 03:18:00,
2013-04-27 23:20:00,50.2,9.5,30.30,SSW,202,0.0,0.0,19,0.00,,---,0.00,VWS V14.00,2013-04-28 03:20:00,
2013-04-27 23:21:00,50.2,9.5,30.30,SSW,202,0.0,0.0,19,0.00,,---,0.00,VWS V14.00,2013-04-28 03:21:00,
2013-04-27 23:22:00,50.2,9.5,30.30,SSW,202,0.0,0.0,19,0.00,,---,0.00,VWS V14.00,2013-04-28 03:22:00,
2013-04-27 23:23:00,50.4,9.7,30.30,SSW,202,0.0,0.0,19,0.00,,---,0.00,VWS V14.00,2013-04-28 03:23:00,
2013-04-27 23:26:00,50.4,9.7,30.30,SSW,202,0.0,0.0,19,0.00,,---,0.00,VWS V14.00,2013-04-28 03:26:00,
2013-04-27 23:28:00,50.4,9.7,30.30,SSW,202,0.0,0.0,19,0.00,,---,0.00,VWS V14.00,2013-04-28 03:28:00,
2013-04-27 23:30:00,50.2,11.8,30.30,SSW,202,0.0,0.0,21,0.00,,---,0.00,VWS V14.00,2013-04-28 03:30:00,
2013-04-27 23:32:00,50.0,11.6,30.30,SSW,202,0.0,0.0,21,0.00,,---,0.00,VWS V14.00,2013-04-28 03:32:00,
2013-04-27 23:34:00,50.2,11.8,30.30,SSW,202,0.0,0.0,21,0.00,,---,0.00,VWS V14.00,2013-04-28 03:34:00,
2013-04-27 23:35:00,50.0,11.6,30.30,SSW,202,0.0,0.0,21,0.00,,---,0.00,VWS V14.00,2013-04-28 03:35:00,
2013-04-27 23:38:00,49.8,11.5,30.30,SSW,202,0.0,0.0,21,0.00,,---,0.00,VWS V14.00,2013-04-28 03:38:00,
2013-04-27 23:39:00,49.8,11.5,30.30,SSW,202,0.0,0.0,21,0.00,,---,0.00,VWS V14.00,2013-04-28 03:39:00,
2013-04-27 23:41:00,49.6,11.3,30.30,SSW,202,0.0,0.0,21,0.00,,---,0.00,VWS V14.00,2013-04-28 03:41:00,
2013-04-27 23:43:00,49.6,11.3,30.30,SSW,202,0.0,0.0,21,0.00,,---,0.00,VWS V14.00,2013-04-28 03:43:00,
2013-04-27 23:46:00,49.5,11.2,30.30,SSW,202,0.0,0.0,21,0.00,,---,0.00,VWS V14.00,2013-04-28 03:46:00,
2013-04-27 23:48:00,49.6,11.3,30.30,SSW,202,0.0,0.0,21,0.00,,---,0.00,VWS V14.00,2013-04-28 03:48:00,
2013-04-27 23:49:00,49.8,11.5,30.30,SSW,202,0.0,0.0,21,0.00,,---,0.00,VWS V14.00,2013-04-28 03:49:00,
2013-04-27 23:51:00,49.8,11.5,30.30,SSW,202,0.0,0.0,21,0.00,,---,0.00,VWS V14.00,2013-04-28 03:51:00,
2013-04-27 23:52:00,49.8,11.5,30.30,SSW,202,0.0,0.0,21,0.00,,---,0.00,VWS V14.00,2013-04-28 03:52:00,
2013-04-27 23:55:00,49.8,11.5,30.30,SSW,202,0.0,0.0,21,0.00,,---,0.00,VWS V14.00,2013-04-28 03:55:00,
2013-04-27 23:56:00,49.6,11.3,30.30,SSW,202,0.0,0.0,21,0.00,,---,0.00,VWS V14.00,2013-04-28 03:56:00,
2013-04-27 23:58:00,49.6,11.3,30.30,SW,225,0.0,0.0,21,0.00,,---,0.00,VWS V14.00,2013-04-28 03:58:00,